<?xml version="1.0" encoding="UTF-8" standalone="no" ?>
<gpx xmlns="http://www.topografix.com/GPX/1/1" xmlns:xsi="http://www.w3.org/2001/XMLSchema-instance" xsi:schemaLocation="http://www.topografix.com/GPX/1/1 http://www.topografix.com/GPX/1/1/gpx.xsd" version="1.1" creator="VisuGPX - https://www.visugpx.com">
  <metadata>
    <name>VTT variante Serre Oupia avec Bize/Mailhac</name>
    <desc><![CDATA[Depart piste du pont de Mailhac et Retour single au départ . VTT confirmé !]]></desc>
  </metadata>
  <trk>
    <name><![CDATA[VTT Serre Oupia on AllTrails]]></name>
    <trkseg>
      <trkpt lat="43.31026" lon="2.81633">
        <ele>94</ele>
        <time>2010-01-01T00:00:00Z</time>
      </trkpt>
      <trkpt lat="43.31024" lon="2.81633">
        <ele>95</ele>
        <time>2010-01-01T00:00:00Z</time>
      </trkpt>
      <trkpt lat="43.31016" lon="2.81543">
        <ele>100</ele>
        <time>2010-01-01T00:00:27Z</time>
      </trkpt>
      <trkpt lat="43.31016" lon="2.81524">
        <ele>100</ele>
        <time>2010-01-01T00:00:32Z</time>
      </trkpt>
      <trkpt lat="43.31016" lon="2.81523">
        <ele>100</ele>
        <time>2010-01-01T00:00:33Z</time>
      </trkpt>
      <trkpt lat="43.31008" lon="2.81484">
        <ele>104</ele>
        <time>2010-01-01T00:00:44Z</time>
      </trkpt>
      <trkpt lat="43.31006" lon="2.81479">
        <ele>104</ele>
        <time>2010-01-01T00:00:46Z</time>
      </trkpt>
      <trkpt lat="43.31003" lon="2.81476">
        <ele>105</ele>
        <time>2010-01-01T00:00:48Z</time>
      </trkpt>
      <trkpt lat="43.31" lon="2.81477">
        <ele>105</ele>
        <time>2010-01-01T00:00:49Z</time>
      </trkpt>
      <trkpt lat="43.30997" lon="2.81494">
        <ele>106</ele>
        <time>2010-01-01T00:00:54Z</time>
      </trkpt>
      <trkpt lat="43.30999" lon="2.81537">
        <ele>105</ele>
        <time>2010-01-01T00:01:06Z</time>
      </trkpt>
      <trkpt lat="43.30999" lon="2.81546">
        <ele>105</ele>
        <time>2010-01-01T00:01:09Z</time>
      </trkpt>
      <trkpt lat="43.30996" lon="2.81556">
        <ele>107</ele>
        <time>2010-01-01T00:01:12Z</time>
      </trkpt>
      <trkpt lat="43.30996" lon="2.81591">
        <ele>107</ele>
        <time>2010-01-01T00:01:22Z</time>
      </trkpt>
      <trkpt lat="43.30994" lon="2.816">
        <ele>108</ele>
        <time>2010-01-01T00:01:25Z</time>
      </trkpt>
      <trkpt lat="43.30994" lon="2.81599">
        <ele>108</ele>
        <time>2010-01-01T00:01:25Z</time>
      </trkpt>
      <trkpt lat="43.3099" lon="2.81601">
        <ele>110</ele>
        <time>2010-01-01T00:01:27Z</time>
      </trkpt>
      <trkpt lat="43.30986" lon="2.81598">
        <ele>112</ele>
        <time>2010-01-01T00:01:29Z</time>
      </trkpt>
      <trkpt lat="43.30984" lon="2.81591">
        <ele>113</ele>
        <time>2010-01-01T00:01:31Z</time>
      </trkpt>
      <trkpt lat="43.30984" lon="2.81554">
        <ele>112</ele>
        <time>2010-01-01T00:01:42Z</time>
      </trkpt>
      <trkpt lat="43.3098" lon="2.81531">
        <ele>113</ele>
        <time>2010-01-01T00:01:49Z</time>
      </trkpt>
      <trkpt lat="43.3098" lon="2.8153">
        <ele>113</ele>
        <time>2010-01-01T00:01:49Z</time>
      </trkpt>
      <trkpt lat="43.30974" lon="2.81511">
        <ele>115</ele>
        <time>2010-01-01T00:01:55Z</time>
      </trkpt>
      <trkpt lat="43.30948" lon="2.81442">
        <ele>118</ele>
        <time>2010-01-01T00:02:18Z</time>
      </trkpt>
      <trkpt lat="43.30912" lon="2.81366">
        <ele>118</ele>
        <time>2010-01-01T00:02:44Z</time>
      </trkpt>
      <trkpt lat="43.30911" lon="2.81366">
        <ele>118</ele>
        <time>2010-01-01T00:02:45Z</time>
      </trkpt>
      <trkpt lat="43.30883" lon="2.81312">
        <ele>120</ele>
        <time>2010-01-01T00:03:04Z</time>
      </trkpt>
      <trkpt lat="43.30874" lon="2.81289">
        <ele>121</ele>
        <time>2010-01-01T00:03:11Z</time>
      </trkpt>
      <trkpt lat="43.30857" lon="2.81263">
        <ele>125</ele>
        <time>2010-01-01T00:03:22Z</time>
      </trkpt>
      <trkpt lat="43.30845" lon="2.81234">
        <ele>125</ele>
        <time>2010-01-01T00:03:31Z</time>
      </trkpt>
      <trkpt lat="43.30837" lon="2.81221">
        <ele>125</ele>
        <time>2010-01-01T00:03:36Z</time>
      </trkpt>
      <trkpt lat="43.30796" lon="2.81168">
        <ele>128</ele>
        <time>2010-01-01T00:03:59Z</time>
      </trkpt>
      <trkpt lat="43.30779" lon="2.81139">
        <ele>128</ele>
        <time>2010-01-01T00:04:10Z</time>
      </trkpt>
      <trkpt lat="43.30749" lon="2.81077">
        <ele>130</ele>
        <time>2010-01-01T00:04:31Z</time>
      </trkpt>
      <trkpt lat="43.30738" lon="2.81048">
        <ele>129</ele>
        <time>2010-01-01T00:04:41Z</time>
      </trkpt>
      <trkpt lat="43.30713" lon="2.81006">
        <ele>133</ele>
        <time>2010-01-01T00:04:57Z</time>
      </trkpt>
      <trkpt lat="43.30713" lon="2.81005">
        <ele>133</ele>
        <time>2010-01-01T00:04:57Z</time>
      </trkpt>
      <trkpt lat="43.30659" lon="2.80915">
        <ele>141</ele>
        <time>2010-01-01T00:05:31Z</time>
      </trkpt>
      <trkpt lat="43.30649" lon="2.80903">
        <ele>142</ele>
        <time>2010-01-01T00:05:36Z</time>
      </trkpt>
      <trkpt lat="43.30597" lon="2.80854">
        <ele>145</ele>
        <time>2010-01-01T00:06:02Z</time>
      </trkpt>
      <trkpt lat="43.30588" lon="2.80842">
        <ele>145</ele>
        <time>2010-01-01T00:06:07Z</time>
      </trkpt>
      <trkpt lat="43.30578" lon="2.80821">
        <ele>144</ele>
        <time>2010-01-01T00:06:14Z</time>
      </trkpt>
      <trkpt lat="43.30578" lon="2.8082">
        <ele>144</ele>
        <time>2010-01-01T00:06:14Z</time>
      </trkpt>
      <trkpt lat="43.30528" lon="2.80713">
        <ele>147</ele>
        <time>2010-01-01T00:06:51Z</time>
      </trkpt>
      <trkpt lat="43.30468" lon="2.80575">
        <ele>155</ele>
        <time>2010-01-01T00:07:38Z</time>
      </trkpt>
      <trkpt lat="43.30445" lon="2.80531">
        <ele>161</ele>
        <time>2010-01-01T00:07:54Z</time>
      </trkpt>
      <trkpt lat="43.30372" lon="2.80397">
        <ele>172</ele>
        <time>2010-01-01T00:08:43Z</time>
      </trkpt>
      <trkpt lat="43.30339" lon="2.80322">
        <ele>178</ele>
        <time>2010-01-01T00:09:08Z</time>
      </trkpt>
      <trkpt lat="43.30312" lon="2.80278">
        <ele>190</ele>
        <time>2010-01-01T00:09:25Z</time>
      </trkpt>
      <trkpt lat="43.30312" lon="2.80277">
        <ele>190</ele>
        <time>2010-01-01T00:09:25Z</time>
      </trkpt>
      <trkpt lat="43.3027" lon="2.80219">
        <ele>185</ele>
        <time>2010-01-01T00:09:49Z</time>
      </trkpt>
      <trkpt lat="43.30241" lon="2.80168">
        <ele>188</ele>
        <time>2010-01-01T00:10:08Z</time>
      </trkpt>
      <trkpt lat="43.30203" lon="2.80109">
        <ele>195</ele>
        <time>2010-01-01T00:10:31Z</time>
      </trkpt>
      <trkpt lat="43.30147" lon="2.80014">
        <ele>199</ele>
        <time>2010-01-01T00:11:06Z</time>
      </trkpt>
      <trkpt lat="43.30065" lon="2.79866">
        <ele>215</ele>
        <time>2010-01-01T00:12:01Z</time>
      </trkpt>
      <trkpt lat="43.30065" lon="2.79865">
        <ele>215</ele>
        <time>2010-01-01T00:12:01Z</time>
      </trkpt>
      <trkpt lat="43.30007" lon="2.7975">
        <ele>237</ele>
        <time>2010-01-01T00:12:42Z</time>
      </trkpt>
      <trkpt lat="43.29997" lon="2.79738">
        <ele>233</ele>
        <time>2010-01-01T00:12:47Z</time>
      </trkpt>
      <trkpt lat="43.29978" lon="2.79726">
        <ele>228</ele>
        <time>2010-01-01T00:12:55Z</time>
      </trkpt>
      <trkpt lat="43.29964" lon="2.79711">
        <ele>226</ele>
        <time>2010-01-01T00:13:02Z</time>
      </trkpt>
      <trkpt lat="43.29957" lon="2.79663">
        <ele>217</ele>
        <time>2010-01-01T00:13:17Z</time>
      </trkpt>
      <trkpt lat="43.29951" lon="2.79645">
        <ele>218</ele>
        <time>2010-01-01T00:13:23Z</time>
      </trkpt>
      <trkpt lat="43.29941" lon="2.79627">
        <ele>220</ele>
        <time>2010-01-01T00:13:29Z</time>
      </trkpt>
      <trkpt lat="43.29928" lon="2.79611">
        <ele>223</ele>
        <time>2010-01-01T00:13:36Z</time>
      </trkpt>
      <trkpt lat="43.29928" lon="2.7961">
        <ele>222</ele>
        <time>2010-01-01T00:13:36Z</time>
      </trkpt>
      <trkpt lat="43.29924" lon="2.79604">
        <ele>223</ele>
        <time>2010-01-01T00:13:39Z</time>
      </trkpt>
      <trkpt lat="43.29914" lon="2.79558">
        <ele>218</ele>
        <time>2010-01-01T00:13:53Z</time>
      </trkpt>
      <trkpt lat="43.29892" lon="2.79499">
        <ele>214</ele>
        <time>2010-01-01T00:14:12Z</time>
      </trkpt>
      <trkpt lat="43.29882" lon="2.79481">
        <ele>215</ele>
        <time>2010-01-01T00:14:19Z</time>
      </trkpt>
      <trkpt lat="43.29858" lon="2.79453">
        <ele>220</ele>
        <time>2010-01-01T00:14:31Z</time>
      </trkpt>
      <trkpt lat="43.29849" lon="2.79447">
        <ele>223</ele>
        <time>2010-01-01T00:14:35Z</time>
      </trkpt>
      <trkpt lat="43.29848" lon="2.79457">
        <ele>225</ele>
        <time>2010-01-01T00:14:38Z</time>
      </trkpt>
      <trkpt lat="43.29851" lon="2.79464">
        <ele>225</ele>
        <time>2010-01-01T00:14:41Z</time>
      </trkpt>
      <trkpt lat="43.29876" lon="2.79496">
        <ele>220</ele>
        <time>2010-01-01T00:14:54Z</time>
      </trkpt>
      <trkpt lat="43.29878" lon="2.79501">
        <ele>220</ele>
        <time>2010-01-01T00:14:56Z</time>
      </trkpt>
      <trkpt lat="43.29878" lon="2.795">
        <ele>220</ele>
        <time>2010-01-01T00:14:56Z</time>
      </trkpt>
      <trkpt lat="43.2989" lon="2.79535">
        <ele>222</ele>
        <time>2010-01-01T00:15:07Z</time>
      </trkpt>
      <trkpt lat="43.29895" lon="2.79561">
        <ele>225</ele>
        <time>2010-01-01T00:15:15Z</time>
      </trkpt>
      <trkpt lat="43.29898" lon="2.79615">
        <ele>236</ele>
        <time>2010-01-01T00:15:31Z</time>
      </trkpt>
      <trkpt lat="43.29901" lon="2.79626">
        <ele>237</ele>
        <time>2010-01-01T00:15:35Z</time>
      </trkpt>
      <trkpt lat="43.29919" lon="2.79667">
        <ele>235</ele>
        <time>2010-01-01T00:15:48Z</time>
      </trkpt>
      <trkpt lat="43.29922" lon="2.79681">
        <ele>235</ele>
        <time>2010-01-01T00:15:53Z</time>
      </trkpt>
      <trkpt lat="43.29924" lon="2.79718">
        <ele>239</ele>
        <time>2010-01-01T00:16:04Z</time>
      </trkpt>
      <trkpt lat="43.29926" lon="2.7973">
        <ele>240</ele>
        <time>2010-01-01T00:16:07Z</time>
      </trkpt>
      <trkpt lat="43.29931" lon="2.79743">
        <ele>240</ele>
        <time>2010-01-01T00:16:11Z</time>
      </trkpt>
      <trkpt lat="43.29942" lon="2.79763">
        <ele>239</ele>
        <time>2010-01-01T00:16:19Z</time>
      </trkpt>
      <trkpt lat="43.29955" lon="2.79792">
        <ele>242</ele>
        <time>2010-01-01T00:16:29Z</time>
      </trkpt>
      <trkpt lat="43.29963" lon="2.79814">
        <ele>244</ele>
        <time>2010-01-01T00:16:36Z</time>
      </trkpt>
      <trkpt lat="43.29976" lon="2.79867">
        <ele>247</ele>
        <time>2010-01-01T00:16:52Z</time>
      </trkpt>
      <trkpt lat="43.29975" lon="2.79867">
        <ele>247</ele>
        <time>2010-01-01T00:16:52Z</time>
      </trkpt>
      <trkpt lat="43.2998" lon="2.79891">
        <ele>250</ele>
        <time>2010-01-01T00:17:00Z</time>
      </trkpt>
      <trkpt lat="43.29996" lon="2.80013">
        <ele>253</ele>
        <time>2010-01-01T00:17:36Z</time>
      </trkpt>
      <trkpt lat="43.29997" lon="2.80027">
        <ele>253</ele>
        <time>2010-01-01T00:17:40Z</time>
      </trkpt>
      <trkpt lat="43.29994" lon="2.80043">
        <ele>254</ele>
        <time>2010-01-01T00:17:45Z</time>
      </trkpt>
      <trkpt lat="43.29989" lon="2.8006">
        <ele>255</ele>
        <time>2010-01-01T00:17:50Z</time>
      </trkpt>
      <trkpt lat="43.29978" lon="2.80069">
        <ele>257</ele>
        <time>2010-01-01T00:17:55Z</time>
      </trkpt>
      <trkpt lat="43.29967" lon="2.80064">
        <ele>258</ele>
        <time>2010-01-01T00:18:00Z</time>
      </trkpt>
      <trkpt lat="43.29966" lon="2.80064">
        <ele>258</ele>
        <time>2010-01-01T00:18:00Z</time>
      </trkpt>
      <trkpt lat="43.29968" lon="2.80066">
        <ele>258</ele>
        <time>2010-01-01T00:18:01Z</time>
      </trkpt>
      <trkpt lat="43.29977" lon="2.80093">
        <ele>257</ele>
        <time>2010-01-01T00:18:10Z</time>
      </trkpt>
      <trkpt lat="43.29978" lon="2.80105">
        <ele>256</ele>
        <time>2010-01-01T00:18:13Z</time>
      </trkpt>
      <trkpt lat="43.29976" lon="2.80114">
        <ele>256</ele>
        <time>2010-01-01T00:18:16Z</time>
      </trkpt>
      <trkpt lat="43.29976" lon="2.80126">
        <ele>256</ele>
        <time>2010-01-01T00:18:20Z</time>
      </trkpt>
      <trkpt lat="43.29977" lon="2.80133">
        <ele>256</ele>
        <time>2010-01-01T00:18:22Z</time>
      </trkpt>
      <trkpt lat="43.29984" lon="2.80136">
        <ele>255</ele>
        <time>2010-01-01T00:18:25Z</time>
      </trkpt>
      <trkpt lat="43.29989" lon="2.80149">
        <ele>254</ele>
        <time>2010-01-01T00:18:29Z</time>
      </trkpt>
      <trkpt lat="43.29989" lon="2.80148">
        <ele>255</ele>
        <time>2010-01-01T00:18:29Z</time>
      </trkpt>
      <trkpt lat="43.30005" lon="2.80177">
        <ele>251</ele>
        <time>2010-01-01T00:18:40Z</time>
      </trkpt>
      <trkpt lat="43.30022" lon="2.80195">
        <ele>247</ele>
        <time>2010-01-01T00:18:48Z</time>
      </trkpt>
      <trkpt lat="43.30046" lon="2.80211">
        <ele>245</ele>
        <time>2010-01-01T00:18:59Z</time>
      </trkpt>
      <trkpt lat="43.30072" lon="2.80252">
        <ele>244</ele>
        <time>2010-01-01T00:19:15Z</time>
      </trkpt>
      <trkpt lat="43.30079" lon="2.80257">
        <ele>243</ele>
        <time>2010-01-01T00:19:18Z</time>
      </trkpt>
      <trkpt lat="43.30085" lon="2.80276">
        <ele>242</ele>
        <time>2010-01-01T00:19:24Z</time>
      </trkpt>
      <trkpt lat="43.30098" lon="2.803">
        <ele>241</ele>
        <time>2010-01-01T00:19:33Z</time>
      </trkpt>
      <trkpt lat="43.30104" lon="2.80308">
        <ele>240</ele>
        <time>2010-01-01T00:19:36Z</time>
      </trkpt>
      <trkpt lat="43.30104" lon="2.80307">
        <ele>240</ele>
        <time>2010-01-01T00:19:37Z</time>
      </trkpt>
      <trkpt lat="43.30113" lon="2.80318">
        <ele>239</ele>
        <time>2010-01-01T00:19:41Z</time>
      </trkpt>
      <trkpt lat="43.30126" lon="2.8034">
        <ele>238</ele>
        <time>2010-01-01T00:19:50Z</time>
      </trkpt>
      <trkpt lat="43.30148" lon="2.80373">
        <ele>236</ele>
        <time>2010-01-01T00:20:03Z</time>
      </trkpt>
      <trkpt lat="43.30159" lon="2.80396">
        <ele>235</ele>
        <time>2010-01-01T00:20:11Z</time>
      </trkpt>
      <trkpt lat="43.30166" lon="2.80421">
        <ele>233</ele>
        <time>2010-01-01T00:20:18Z</time>
      </trkpt>
      <trkpt lat="43.30173" lon="2.80438">
        <ele>232</ele>
        <time>2010-01-01T00:20:24Z</time>
      </trkpt>
      <trkpt lat="43.30186" lon="2.80452">
        <ele>231</ele>
        <time>2010-01-01T00:20:31Z</time>
      </trkpt>
      <trkpt lat="43.30194" lon="2.80468">
        <ele>231</ele>
        <time>2010-01-01T00:20:36Z</time>
      </trkpt>
      <trkpt lat="43.302" lon="2.80488">
        <ele>229</ele>
        <time>2010-01-01T00:20:43Z</time>
      </trkpt>
      <trkpt lat="43.30205" lon="2.80503">
        <ele>227</ele>
        <time>2010-01-01T00:20:48Z</time>
      </trkpt>
      <trkpt lat="43.30212" lon="2.80514">
        <ele>225</ele>
        <time>2010-01-01T00:20:52Z</time>
      </trkpt>
      <trkpt lat="43.30232" lon="2.8053">
        <ele>221</ele>
        <time>2010-01-01T00:21:01Z</time>
      </trkpt>
      <trkpt lat="43.30244" lon="2.8056">
        <ele>219</ele>
        <time>2010-01-01T00:21:11Z</time>
      </trkpt>
      <trkpt lat="43.30265" lon="2.80594">
        <ele>219</ele>
        <time>2010-01-01T00:21:24Z</time>
      </trkpt>
      <trkpt lat="43.30266" lon="2.80612">
        <ele>220</ele>
        <time>2010-01-01T00:21:29Z</time>
      </trkpt>
      <trkpt lat="43.30289" lon="2.80653">
        <ele>218</ele>
        <time>2010-01-01T00:21:44Z</time>
      </trkpt>
      <trkpt lat="43.3032" lon="2.80678">
        <ele>214</ele>
        <time>2010-01-01T00:21:59Z</time>
      </trkpt>
      <trkpt lat="43.30333" lon="2.80684">
        <ele>213</ele>
        <time>2010-01-01T00:22:04Z</time>
      </trkpt>
      <trkpt lat="43.30336" lon="2.80687">
        <ele>212</ele>
        <time>2010-01-01T00:22:06Z</time>
      </trkpt>
      <trkpt lat="43.30336" lon="2.80686">
        <ele>212</ele>
        <time>2010-01-01T00:22:06Z</time>
      </trkpt>
      <trkpt lat="43.30341" lon="2.80692">
        <ele>212</ele>
        <time>2010-01-01T00:22:09Z</time>
      </trkpt>
      <trkpt lat="43.30344" lon="2.80701">
        <ele>211</ele>
        <time>2010-01-01T00:22:12Z</time>
      </trkpt>
      <trkpt lat="43.30352" lon="2.80708">
        <ele>210</ele>
        <time>2010-01-01T00:22:15Z</time>
      </trkpt>
      <trkpt lat="43.30355" lon="2.80727">
        <ele>211</ele>
        <time>2010-01-01T00:22:21Z</time>
      </trkpt>
      <trkpt lat="43.30363" lon="2.80737">
        <ele>210</ele>
        <time>2010-01-01T00:22:25Z</time>
      </trkpt>
      <trkpt lat="43.30368" lon="2.80752">
        <ele>209</ele>
        <time>2010-01-01T00:22:30Z</time>
      </trkpt>
      <trkpt lat="43.30371" lon="2.80772">
        <ele>208</ele>
        <time>2010-01-01T00:22:36Z</time>
      </trkpt>
      <trkpt lat="43.30374" lon="2.80783">
        <ele>206</ele>
        <time>2010-01-01T00:22:40Z</time>
      </trkpt>
      <trkpt lat="43.30381" lon="2.80797">
        <ele>205</ele>
        <time>2010-01-01T00:22:44Z</time>
      </trkpt>
      <trkpt lat="43.30389" lon="2.80802">
        <ele>203</ele>
        <time>2010-01-01T00:22:48Z</time>
      </trkpt>
      <trkpt lat="43.30398" lon="2.80811">
        <ele>199</ele>
        <time>2010-01-01T00:22:52Z</time>
      </trkpt>
      <trkpt lat="43.30423" lon="2.8085">
        <ele>190</ele>
        <time>2010-01-01T00:23:08Z</time>
      </trkpt>
      <trkpt lat="43.30429" lon="2.80849">
        <ele>189</ele>
        <time>2010-01-01T00:23:10Z</time>
      </trkpt>
      <trkpt lat="43.30436" lon="2.80843">
        <ele>187</ele>
        <time>2010-01-01T00:23:13Z</time>
      </trkpt>
      <trkpt lat="43.30444" lon="2.80843">
        <ele>184</ele>
        <time>2010-01-01T00:23:17Z</time>
      </trkpt>
      <trkpt lat="43.30449" lon="2.80848">
        <ele>183</ele>
        <time>2010-01-01T00:23:19Z</time>
      </trkpt>
      <trkpt lat="43.30456" lon="2.8087">
        <ele>182</ele>
        <time>2010-01-01T00:23:26Z</time>
      </trkpt>
      <trkpt lat="43.30464" lon="2.80874">
        <ele>180</ele>
        <time>2010-01-01T00:23:29Z</time>
      </trkpt>
      <trkpt lat="43.30468" lon="2.80881">
        <ele>180</ele>
        <time>2010-01-01T00:23:32Z</time>
      </trkpt>
      <trkpt lat="43.30471" lon="2.80896">
        <ele>181</ele>
        <time>2010-01-01T00:23:37Z</time>
      </trkpt>
      <trkpt lat="43.30474" lon="2.80903">
        <ele>182</ele>
        <time>2010-01-01T00:23:39Z</time>
      </trkpt>
      <trkpt lat="43.30474" lon="2.80902">
        <ele>181</ele>
        <time>2010-01-01T00:23:39Z</time>
      </trkpt>
      <trkpt lat="43.30481" lon="2.80919">
        <ele>182</ele>
        <time>2010-01-01T00:23:45Z</time>
      </trkpt>
      <trkpt lat="43.30483" lon="2.80935">
        <ele>183</ele>
        <time>2010-01-01T00:23:50Z</time>
      </trkpt>
      <trkpt lat="43.30486" lon="2.80945">
        <ele>184</ele>
        <time>2010-01-01T00:23:53Z</time>
      </trkpt>
      <trkpt lat="43.30504" lon="2.80974">
        <ele>185</ele>
        <time>2010-01-01T00:24:04Z</time>
      </trkpt>
      <trkpt lat="43.3051" lon="2.80994">
        <ele>187</ele>
        <time>2010-01-01T00:24:10Z</time>
      </trkpt>
      <trkpt lat="43.30509" lon="2.81005">
        <ele>189</ele>
        <time>2010-01-01T00:24:13Z</time>
      </trkpt>
      <trkpt lat="43.30512" lon="2.81016">
        <ele>190</ele>
        <time>2010-01-01T00:24:17Z</time>
      </trkpt>
      <trkpt lat="43.30518" lon="2.81025">
        <ele>190</ele>
        <time>2010-01-01T00:24:20Z</time>
      </trkpt>
      <trkpt lat="43.30525" lon="2.81045">
        <ele>191</ele>
        <time>2010-01-01T00:24:27Z</time>
      </trkpt>
      <trkpt lat="43.30525" lon="2.81054">
        <ele>193</ele>
        <time>2010-01-01T00:24:29Z</time>
      </trkpt>
      <trkpt lat="43.30522" lon="2.81062">
        <ele>194</ele>
        <time>2010-01-01T00:24:32Z</time>
      </trkpt>
      <trkpt lat="43.30507" lon="2.81069">
        <ele>196</ele>
        <time>2010-01-01T00:24:38Z</time>
      </trkpt>
      <trkpt lat="43.30504" lon="2.81078">
        <ele>197</ele>
        <time>2010-01-01T00:24:41Z</time>
      </trkpt>
      <trkpt lat="43.30499" lon="2.81084">
        <ele>198</ele>
        <time>2010-01-01T00:24:44Z</time>
      </trkpt>
      <trkpt lat="43.30492" lon="2.81084">
        <ele>198</ele>
        <time>2010-01-01T00:24:47Z</time>
      </trkpt>
      <trkpt lat="43.30484" lon="2.81078">
        <ele>198</ele>
        <time>2010-01-01T00:24:50Z</time>
      </trkpt>
      <trkpt lat="43.30459" lon="2.81073">
        <ele>196</ele>
        <time>2010-01-01T00:25:01Z</time>
      </trkpt>
      <trkpt lat="43.30458" lon="2.81077">
        <ele>197</ele>
        <time>2010-01-01T00:25:02Z</time>
      </trkpt>
      <trkpt lat="43.30443" lon="2.8107">
        <ele>195</ele>
        <time>2010-01-01T00:25:08Z</time>
      </trkpt>
      <trkpt lat="43.30435" lon="2.81069">
        <ele>193</ele>
        <time>2010-01-01T00:25:11Z</time>
      </trkpt>
      <trkpt lat="43.3043" lon="2.81065">
        <ele>193</ele>
        <time>2010-01-01T00:25:14Z</time>
      </trkpt>
      <trkpt lat="43.30427" lon="2.81061">
        <ele>192</ele>
        <time>2010-01-01T00:25:15Z</time>
      </trkpt>
      <trkpt lat="43.30425" lon="2.81046">
        <ele>191</ele>
        <time>2010-01-01T00:25:20Z</time>
      </trkpt>
      <trkpt lat="43.30421" lon="2.81035">
        <ele>191</ele>
        <time>2010-01-01T00:25:23Z</time>
      </trkpt>
      <trkpt lat="43.3042" lon="2.81027">
        <ele>190</ele>
        <time>2010-01-01T00:25:26Z</time>
      </trkpt>
      <trkpt lat="43.30422" lon="2.81001">
        <ele>190</ele>
        <time>2010-01-01T00:25:33Z</time>
      </trkpt>
      <trkpt lat="43.30419" lon="2.80991">
        <ele>189</ele>
        <time>2010-01-01T00:25:36Z</time>
      </trkpt>
      <trkpt lat="43.30415" lon="2.80985">
        <ele>188</ele>
        <time>2010-01-01T00:25:39Z</time>
      </trkpt>
      <trkpt lat="43.30405" lon="2.8098">
        <ele>187</ele>
        <time>2010-01-01T00:25:43Z</time>
      </trkpt>
      <trkpt lat="43.30399" lon="2.8097">
        <ele>187</ele>
        <time>2010-01-01T00:25:47Z</time>
      </trkpt>
      <trkpt lat="43.3039" lon="2.80947">
        <ele>186</ele>
        <time>2010-01-01T00:25:54Z</time>
      </trkpt>
      <trkpt lat="43.3039" lon="2.80946">
        <ele>186</ele>
        <time>2010-01-01T00:25:55Z</time>
      </trkpt>
      <trkpt lat="43.30383" lon="2.80937">
        <ele>187</ele>
        <time>2010-01-01T00:25:59Z</time>
      </trkpt>
      <trkpt lat="43.30373" lon="2.80932">
        <ele>188</ele>
        <time>2010-01-01T00:26:03Z</time>
      </trkpt>
      <trkpt lat="43.30349" lon="2.80932">
        <ele>191</ele>
        <time>2010-01-01T00:26:12Z</time>
      </trkpt>
      <trkpt lat="43.30328" lon="2.80929">
        <ele>193</ele>
        <time>2010-01-01T00:26:21Z</time>
      </trkpt>
      <trkpt lat="43.30297" lon="2.80929">
        <ele>195</ele>
        <time>2010-01-01T00:26:33Z</time>
      </trkpt>
      <trkpt lat="43.30284" lon="2.80932">
        <ele>194</ele>
        <time>2010-01-01T00:26:39Z</time>
      </trkpt>
      <trkpt lat="43.30267" lon="2.80931">
        <ele>194</ele>
        <time>2010-01-01T00:26:45Z</time>
      </trkpt>
      <trkpt lat="43.30238" lon="2.80909">
        <ele>195</ele>
        <time>2010-01-01T00:26:59Z</time>
      </trkpt>
      <trkpt lat="43.30225" lon="2.80906">
        <ele>195</ele>
        <time>2010-01-01T00:27:04Z</time>
      </trkpt>
      <trkpt lat="43.30216" lon="2.80907">
        <ele>194</ele>
        <time>2010-01-01T00:27:08Z</time>
      </trkpt>
      <trkpt lat="43.3019" lon="2.80919">
        <ele>192</ele>
        <time>2010-01-01T00:27:19Z</time>
      </trkpt>
      <trkpt lat="43.30144" lon="2.80922">
        <ele>192</ele>
        <time>2010-01-01T00:27:37Z</time>
      </trkpt>
      <trkpt lat="43.30137" lon="2.80926">
        <ele>192</ele>
        <time>2010-01-01T00:27:40Z</time>
      </trkpt>
      <trkpt lat="43.30128" lon="2.80936">
        <ele>191</ele>
        <time>2010-01-01T00:27:45Z</time>
      </trkpt>
      <trkpt lat="43.30121" lon="2.80947">
        <ele>191</ele>
        <time>2010-01-01T00:27:49Z</time>
      </trkpt>
      <trkpt lat="43.30115" lon="2.80963">
        <ele>190</ele>
        <time>2010-01-01T00:27:54Z</time>
      </trkpt>
      <trkpt lat="43.30102" lon="2.80981">
        <ele>189</ele>
        <time>2010-01-01T00:28:02Z</time>
      </trkpt>
      <trkpt lat="43.30075" lon="2.81011">
        <ele>187</ele>
        <time>2010-01-01T00:28:15Z</time>
      </trkpt>
      <trkpt lat="43.30058" lon="2.81052">
        <ele>186</ele>
        <time>2010-01-01T00:28:29Z</time>
      </trkpt>
      <trkpt lat="43.30054" lon="2.81074">
        <ele>186</ele>
        <time>2010-01-01T00:28:36Z</time>
      </trkpt>
      <trkpt lat="43.30048" lon="2.81094">
        <ele>186</ele>
        <time>2010-01-01T00:28:42Z</time>
      </trkpt>
      <trkpt lat="43.30031" lon="2.81126">
        <ele>187</ele>
        <time>2010-01-01T00:28:54Z</time>
      </trkpt>
      <trkpt lat="43.30021" lon="2.81132">
        <ele>187</ele>
        <time>2010-01-01T00:28:58Z</time>
      </trkpt>
      <trkpt lat="43.30013" lon="2.8115">
        <ele>188</ele>
        <time>2010-01-01T00:29:04Z</time>
      </trkpt>
      <trkpt lat="43.30002" lon="2.81181">
        <ele>187</ele>
        <time>2010-01-01T00:29:14Z</time>
      </trkpt>
      <trkpt lat="43.29981" lon="2.81216">
        <ele>184</ele>
        <time>2010-01-01T00:29:27Z</time>
      </trkpt>
      <trkpt lat="43.29973" lon="2.81225">
        <ele>182</ele>
        <time>2010-01-01T00:29:32Z</time>
      </trkpt>
      <trkpt lat="43.29957" lon="2.81235">
        <ele>179</ele>
        <time>2010-01-01T00:29:39Z</time>
      </trkpt>
      <trkpt lat="43.2995" lon="2.81244">
        <ele>178</ele>
        <time>2010-01-01T00:29:42Z</time>
      </trkpt>
      <trkpt lat="43.29943" lon="2.81257">
        <ele>176</ele>
        <time>2010-01-01T00:29:47Z</time>
      </trkpt>
      <trkpt lat="43.29933" lon="2.81289">
        <ele>172</ele>
        <time>2010-01-01T00:29:57Z</time>
      </trkpt>
      <trkpt lat="43.29929" lon="2.81295">
        <ele>171</ele>
        <time>2010-01-01T00:30:00Z</time>
      </trkpt>
      <trkpt lat="43.29921" lon="2.81298">
        <ele>170</ele>
        <time>2010-01-01T00:30:03Z</time>
      </trkpt>
      <trkpt lat="43.29891" lon="2.81301">
        <ele>168</ele>
        <time>2010-01-01T00:30:15Z</time>
      </trkpt>
      <trkpt lat="43.29882" lon="2.813">
        <ele>167</ele>
        <time>2010-01-01T00:30:19Z</time>
      </trkpt>
      <trkpt lat="43.29875" lon="2.81302">
        <ele>166</ele>
        <time>2010-01-01T00:30:21Z</time>
      </trkpt>
      <trkpt lat="43.29874" lon="2.8131">
        <ele>165</ele>
        <time>2010-01-01T00:30:24Z</time>
      </trkpt>
      <trkpt lat="43.29877" lon="2.81321">
        <ele>164</ele>
        <time>2010-01-01T00:30:27Z</time>
      </trkpt>
      <trkpt lat="43.29895" lon="2.81351">
        <ele>163</ele>
        <time>2010-01-01T00:30:39Z</time>
      </trkpt>
      <trkpt lat="43.29884" lon="2.81363">
        <ele>160</ele>
        <time>2010-01-01T00:30:44Z</time>
      </trkpt>
      <trkpt lat="43.29877" lon="2.81364">
        <ele>159</ele>
        <time>2010-01-01T00:30:47Z</time>
      </trkpt>
      <trkpt lat="43.2987" lon="2.81373">
        <ele>157</ele>
        <time>2010-01-01T00:30:51Z</time>
      </trkpt>
      <trkpt lat="43.29868" lon="2.81382">
        <ele>155</ele>
        <time>2010-01-01T00:30:54Z</time>
      </trkpt>
      <trkpt lat="43.29866" lon="2.81386">
        <ele>154</ele>
        <time>2010-01-01T00:30:55Z</time>
      </trkpt>
      <trkpt lat="43.29854" lon="2.81392">
        <ele>152</ele>
        <time>2010-01-01T00:31:00Z</time>
      </trkpt>
      <trkpt lat="43.29849" lon="2.81402">
        <ele>150</ele>
        <time>2010-01-01T00:31:04Z</time>
      </trkpt>
      <trkpt lat="43.29833" lon="2.81421">
        <ele>145</ele>
        <time>2010-01-01T00:31:12Z</time>
      </trkpt>
      <trkpt lat="43.2982" lon="2.81443">
        <ele>138</ele>
        <time>2010-01-01T00:31:20Z</time>
      </trkpt>
      <trkpt lat="43.2982" lon="2.81462">
        <ele>136</ele>
        <time>2010-01-01T00:31:26Z</time>
      </trkpt>
      <trkpt lat="43.29813" lon="2.81476">
        <ele>133</ele>
        <time>2010-01-01T00:31:31Z</time>
      </trkpt>
      <trkpt lat="43.29813" lon="2.81489">
        <ele>131</ele>
        <time>2010-01-01T00:31:35Z</time>
      </trkpt>
      <trkpt lat="43.29811" lon="2.81495">
        <ele>130</ele>
        <time>2010-01-01T00:31:37Z</time>
      </trkpt>
      <trkpt lat="43.29801" lon="2.81501">
        <ele>128</ele>
        <time>2010-01-01T00:31:41Z</time>
      </trkpt>
      <trkpt lat="43.29791" lon="2.81502">
        <ele>127</ele>
        <time>2010-01-01T00:31:45Z</time>
      </trkpt>
      <trkpt lat="43.29773" lon="2.81538">
        <ele>120</ele>
        <time>2010-01-01T00:31:58Z</time>
      </trkpt>
      <trkpt lat="43.29769" lon="2.81542">
        <ele>120</ele>
        <time>2010-01-01T00:32:00Z</time>
      </trkpt>
      <trkpt lat="43.29754" lon="2.81522">
        <ele>121</ele>
        <time>2010-01-01T00:32:08Z</time>
      </trkpt>
      <trkpt lat="43.29688" lon="2.81439">
        <ele>125</ele>
        <time>2010-01-01T00:32:44Z</time>
      </trkpt>
      <trkpt lat="43.29687" lon="2.81431">
        <ele>125</ele>
        <time>2010-01-01T00:32:46Z</time>
      </trkpt>
      <trkpt lat="43.29656" lon="2.81474">
        <ele>119</ele>
        <time>2010-01-01T00:33:04Z</time>
      </trkpt>
      <trkpt lat="43.29652" lon="2.81491">
        <ele>118</ele>
        <time>2010-01-01T00:33:09Z</time>
      </trkpt>
      <trkpt lat="43.29637" lon="2.81503">
        <ele>115</ele>
        <time>2010-01-01T00:33:16Z</time>
      </trkpt>
      <trkpt lat="43.2962" lon="2.81517">
        <ele>113</ele>
        <time>2010-01-01T00:33:24Z</time>
      </trkpt>
      <trkpt lat="43.29617" lon="2.81514">
        <ele>113</ele>
        <time>2010-01-01T00:33:25Z</time>
      </trkpt>
      <trkpt lat="43.29609" lon="2.81513">
        <ele>112</ele>
        <time>2010-01-01T00:33:29Z</time>
      </trkpt>
      <trkpt lat="43.29607" lon="2.81503">
        <ele>112</ele>
        <time>2010-01-01T00:33:32Z</time>
      </trkpt>
      <trkpt lat="43.29584" lon="2.81512">
        <ele>109</ele>
        <time>2010-01-01T00:33:41Z</time>
      </trkpt>
      <trkpt lat="43.29581" lon="2.81516">
        <ele>109</ele>
        <time>2010-01-01T00:33:43Z</time>
      </trkpt>
      <trkpt lat="43.29559" lon="2.81569">
        <ele>105</ele>
        <time>2010-01-01T00:34:01Z</time>
      </trkpt>
      <trkpt lat="43.29544" lon="2.81592">
        <ele>104</ele>
        <time>2010-01-01T00:34:10Z</time>
      </trkpt>
      <trkpt lat="43.29529" lon="2.81591">
        <ele>103</ele>
        <time>2010-01-01T00:34:16Z</time>
      </trkpt>
      <trkpt lat="43.29524" lon="2.81593">
        <ele>103</ele>
        <time>2010-01-01T00:34:18Z</time>
      </trkpt>
      <trkpt lat="43.29507" lon="2.81618">
        <ele>102</ele>
        <time>2010-01-01T00:34:28Z</time>
      </trkpt>
      <trkpt lat="43.295" lon="2.81625">
        <ele>101</ele>
        <time>2010-01-01T00:34:31Z</time>
      </trkpt>
      <trkpt lat="43.29476" lon="2.81637">
        <ele>100</ele>
        <time>2010-01-01T00:34:41Z</time>
      </trkpt>
      <trkpt lat="43.29452" lon="2.81638">
        <ele>100</ele>
        <time>2010-01-01T00:34:51Z</time>
      </trkpt>
      <trkpt lat="43.29432" lon="2.81631">
        <ele>100</ele>
        <time>2010-01-01T00:34:59Z</time>
      </trkpt>
      <trkpt lat="43.29434" lon="2.81619">
        <ele>100</ele>
        <time>2010-01-01T00:35:03Z</time>
      </trkpt>
      <trkpt lat="43.29433" lon="2.816">
        <ele>101</ele>
        <time>2010-01-01T00:35:08Z</time>
      </trkpt>
      <trkpt lat="43.29435" lon="2.81584">
        <ele>101</ele>
        <time>2010-01-01T00:35:13Z</time>
      </trkpt>
      <trkpt lat="43.29448" lon="2.81537">
        <ele>105</ele>
        <time>2010-01-01T00:35:28Z</time>
      </trkpt>
      <trkpt lat="43.29476" lon="2.81448">
        <ele>108</ele>
        <time>2010-01-01T00:35:56Z</time>
      </trkpt>
      <trkpt lat="43.29487" lon="2.81425">
        <ele>109</ele>
        <time>2010-01-01T00:36:04Z</time>
      </trkpt>
      <trkpt lat="43.29508" lon="2.81387">
        <ele>113</ele>
        <time>2010-01-01T00:36:18Z</time>
      </trkpt>
      <trkpt lat="43.29529" lon="2.81353">
        <ele>116</ele>
        <time>2010-01-01T00:36:31Z</time>
      </trkpt>
      <trkpt lat="43.29607" lon="2.81195">
        <ele>130</ele>
        <time>2010-01-01T00:37:27Z</time>
      </trkpt>
      <trkpt lat="43.29618" lon="2.81175">
        <ele>134</ele>
        <time>2010-01-01T00:37:34Z</time>
      </trkpt>
      <trkpt lat="43.29635" lon="2.81154">
        <ele>139</ele>
        <time>2010-01-01T00:37:43Z</time>
      </trkpt>
      <trkpt lat="43.29652" lon="2.81139">
        <ele>142</ele>
        <time>2010-01-01T00:37:51Z</time>
      </trkpt>
      <trkpt lat="43.29658" lon="2.81136">
        <ele>142</ele>
        <time>2010-01-01T00:37:54Z</time>
      </trkpt>
      <trkpt lat="43.29667" lon="2.81135">
        <ele>142</ele>
        <time>2010-01-01T00:37:57Z</time>
      </trkpt>
      <trkpt lat="43.29676" lon="2.8113">
        <ele>141</ele>
        <time>2010-01-01T00:38:01Z</time>
      </trkpt>
      <trkpt lat="43.29683" lon="2.81124">
        <ele>142</ele>
        <time>2010-01-01T00:38:05Z</time>
      </trkpt>
      <trkpt lat="43.29705" lon="2.81086">
        <ele>143</ele>
        <time>2010-01-01T00:38:19Z</time>
      </trkpt>
      <trkpt lat="43.29719" lon="2.81042">
        <ele>144</ele>
        <time>2010-01-01T00:38:33Z</time>
      </trkpt>
      <trkpt lat="43.29722" lon="2.81016">
        <ele>147</ele>
        <time>2010-01-01T00:38:40Z</time>
      </trkpt>
      <trkpt lat="43.29727" lon="2.80993">
        <ele>150</ele>
        <time>2010-01-01T00:38:47Z</time>
      </trkpt>
      <trkpt lat="43.29731" lon="2.80987">
        <ele>151</ele>
        <time>2010-01-01T00:38:50Z</time>
      </trkpt>
      <trkpt lat="43.29756" lon="2.80964">
        <ele>152</ele>
        <time>2010-01-01T00:39:02Z</time>
      </trkpt>
      <trkpt lat="43.29761" lon="2.80956">
        <ele>153</ele>
        <time>2010-01-01T00:39:05Z</time>
      </trkpt>
      <trkpt lat="43.29768" lon="2.80923">
        <ele>157</ele>
        <time>2010-01-01T00:39:15Z</time>
      </trkpt>
      <trkpt lat="43.2977" lon="2.8091">
        <ele>158</ele>
        <time>2010-01-01T00:39:19Z</time>
      </trkpt>
      <trkpt lat="43.2977" lon="2.80895">
        <ele>160</ele>
        <time>2010-01-01T00:39:23Z</time>
      </trkpt>
      <trkpt lat="43.29771" lon="2.80885">
        <ele>162</ele>
        <time>2010-01-01T00:39:26Z</time>
      </trkpt>
      <trkpt lat="43.29774" lon="2.80876">
        <ele>162</ele>
        <time>2010-01-01T00:39:29Z</time>
      </trkpt>
      <trkpt lat="43.29792" lon="2.8085">
        <ele>162</ele>
        <time>2010-01-01T00:39:39Z</time>
      </trkpt>
      <trkpt lat="43.29813" lon="2.80803">
        <ele>167</ele>
        <time>2010-01-01T00:39:55Z</time>
      </trkpt>
      <trkpt lat="43.29818" lon="2.80772">
        <ele>170</ele>
        <time>2010-01-01T00:40:05Z</time>
      </trkpt>
      <trkpt lat="43.29822" lon="2.80764">
        <ele>170</ele>
        <time>2010-01-01T00:40:07Z</time>
      </trkpt>
      <trkpt lat="43.29835" lon="2.80747">
        <ele>170</ele>
        <time>2010-01-01T00:40:15Z</time>
      </trkpt>
      <trkpt lat="43.29846" lon="2.80715">
        <ele>170</ele>
        <time>2010-01-01T00:40:25Z</time>
      </trkpt>
      <trkpt lat="43.29851" lon="2.80694">
        <ele>170</ele>
        <time>2010-01-01T00:40:31Z</time>
      </trkpt>
      <trkpt lat="43.29852" lon="2.80679">
        <ele>171</ele>
        <time>2010-01-01T00:40:36Z</time>
      </trkpt>
      <trkpt lat="43.2985" lon="2.80655">
        <ele>174</ele>
        <time>2010-01-01T00:40:43Z</time>
      </trkpt>
      <trkpt lat="43.29842" lon="2.80617">
        <ele>175</ele>
        <time>2010-01-01T00:40:54Z</time>
      </trkpt>
      <trkpt lat="43.29807" lon="2.80511">
        <ele>181</ele>
        <time>2010-01-01T00:41:28Z</time>
      </trkpt>
      <trkpt lat="43.29794" lon="2.80484">
        <ele>183</ele>
        <time>2010-01-01T00:41:38Z</time>
      </trkpt>
      <trkpt lat="43.29771" lon="2.80448">
        <ele>187</ele>
        <time>2010-01-01T00:41:52Z</time>
      </trkpt>
      <trkpt lat="43.29759" lon="2.80424">
        <ele>189</ele>
        <time>2010-01-01T00:42:00Z</time>
      </trkpt>
      <trkpt lat="43.29751" lon="2.80405">
        <ele>190</ele>
        <time>2010-01-01T00:42:07Z</time>
      </trkpt>
      <trkpt lat="43.29751" lon="2.80404">
        <ele>190</ele>
        <time>2010-01-01T00:42:07Z</time>
      </trkpt>
      <trkpt lat="43.29743" lon="2.80377">
        <ele>191</ele>
        <time>2010-01-01T00:42:15Z</time>
      </trkpt>
      <trkpt lat="43.29736" lon="2.80338">
        <ele>193</ele>
        <time>2010-01-01T00:42:27Z</time>
      </trkpt>
      <trkpt lat="43.29731" lon="2.80327">
        <ele>193</ele>
        <time>2010-01-01T00:42:31Z</time>
      </trkpt>
      <trkpt lat="43.29724" lon="2.80312">
        <ele>193</ele>
        <time>2010-01-01T00:42:36Z</time>
      </trkpt>
      <trkpt lat="43.29702" lon="2.8028">
        <ele>198</ele>
        <time>2010-01-01T00:42:49Z</time>
      </trkpt>
      <trkpt lat="43.29683" lon="2.80247">
        <ele>200</ele>
        <time>2010-01-01T00:43:01Z</time>
      </trkpt>
      <trkpt lat="43.2968" lon="2.80238">
        <ele>200</ele>
        <time>2010-01-01T00:43:04Z</time>
      </trkpt>
      <trkpt lat="43.29671" lon="2.80184">
        <ele>200</ele>
        <time>2010-01-01T00:43:20Z</time>
      </trkpt>
      <trkpt lat="43.29665" lon="2.80161">
        <ele>201</ele>
        <time>2010-01-01T00:43:27Z</time>
      </trkpt>
      <trkpt lat="43.29641" lon="2.80094">
        <ele>204</ele>
        <time>2010-01-01T00:43:49Z</time>
      </trkpt>
      <trkpt lat="43.29617" lon="2.80021">
        <ele>207</ele>
        <time>2010-01-01T00:44:12Z</time>
      </trkpt>
      <trkpt lat="43.29603" lon="2.79989">
        <ele>210</ele>
        <time>2010-01-01T00:44:23Z</time>
      </trkpt>
      <trkpt lat="43.29578" lon="2.79911">
        <ele>212</ele>
        <time>2010-01-01T00:44:48Z</time>
      </trkpt>
      <trkpt lat="43.29566" lon="2.79885">
        <ele>215</ele>
        <time>2010-01-01T00:44:57Z</time>
      </trkpt>
      <trkpt lat="43.29512" lon="2.798">
        <ele>225</ele>
        <time>2010-01-01T00:45:30Z</time>
      </trkpt>
      <trkpt lat="43.29491" lon="2.79743">
        <ele>228</ele>
        <time>2010-01-01T00:45:48Z</time>
      </trkpt>
      <trkpt lat="43.29485" lon="2.79717">
        <ele>228</ele>
        <time>2010-01-01T00:45:56Z</time>
      </trkpt>
      <trkpt lat="43.29473" lon="2.79681">
        <ele>227</ele>
        <time>2010-01-01T00:46:08Z</time>
      </trkpt>
      <trkpt lat="43.29447" lon="2.79633">
        <ele>232</ele>
        <time>2010-01-01T00:46:25Z</time>
      </trkpt>
      <trkpt lat="43.29438" lon="2.79618">
        <ele>234</ele>
        <time>2010-01-01T00:46:31Z</time>
      </trkpt>
      <trkpt lat="43.29407" lon="2.79582">
        <ele>240</ele>
        <time>2010-01-01T00:46:47Z</time>
      </trkpt>
      <trkpt lat="43.29396" lon="2.79569">
        <ele>241</ele>
        <time>2010-01-01T00:46:53Z</time>
      </trkpt>
      <trkpt lat="43.29367" lon="2.79546">
        <ele>244</ele>
        <time>2010-01-01T00:47:07Z</time>
      </trkpt>
      <trkpt lat="43.29362" lon="2.79538">
        <ele>245</ele>
        <time>2010-01-01T00:47:10Z</time>
      </trkpt>
      <trkpt lat="43.29361" lon="2.7953">
        <ele>245</ele>
        <time>2010-01-01T00:47:12Z</time>
      </trkpt>
      <trkpt lat="43.29356" lon="2.79442">
        <ele>253</ele>
        <time>2010-01-01T00:47:38Z</time>
      </trkpt>
      <trkpt lat="43.29353" lon="2.79421">
        <ele>254</ele>
        <time>2010-01-01T00:47:44Z</time>
      </trkpt>
      <trkpt lat="43.29336" lon="2.79341">
        <ele>254</ele>
        <time>2010-01-01T00:48:08Z</time>
      </trkpt>
      <trkpt lat="43.29333" lon="2.793">
        <ele>255</ele>
        <time>2010-01-01T00:48:20Z</time>
      </trkpt>
      <trkpt lat="43.2933" lon="2.79282">
        <ele>256</ele>
        <time>2010-01-01T00:48:26Z</time>
      </trkpt>
      <trkpt lat="43.29325" lon="2.79269">
        <ele>258</ele>
        <time>2010-01-01T00:48:30Z</time>
      </trkpt>
      <trkpt lat="43.29254" lon="2.79151">
        <ele>271</ele>
        <time>2010-01-01T00:49:14Z</time>
      </trkpt>
      <trkpt lat="43.2925" lon="2.79124">
        <ele>271</ele>
        <time>2010-01-01T00:49:22Z</time>
      </trkpt>
      <trkpt lat="43.29246" lon="2.79116">
        <ele>272</ele>
        <time>2010-01-01T00:49:25Z</time>
      </trkpt>
      <trkpt lat="43.29233" lon="2.79103">
        <ele>274</ele>
        <time>2010-01-01T00:49:32Z</time>
      </trkpt>
      <trkpt lat="43.29218" lon="2.79091">
        <ele>275</ele>
        <time>2010-01-01T00:49:39Z</time>
      </trkpt>
      <trkpt lat="43.29208" lon="2.79087">
        <ele>276</ele>
        <time>2010-01-01T00:49:43Z</time>
      </trkpt>
      <trkpt lat="43.29201" lon="2.79087">
        <ele>277</ele>
        <time>2010-01-01T00:49:46Z</time>
      </trkpt>
      <trkpt lat="43.292" lon="2.79087">
        <ele>277</ele>
        <time>2010-01-01T00:49:46Z</time>
      </trkpt>
      <trkpt lat="43.29152" lon="2.79084">
        <ele>281</ele>
        <time>2010-01-01T00:50:05Z</time>
      </trkpt>
      <trkpt lat="43.29126" lon="2.7909">
        <ele>282</ele>
        <time>2010-01-01T00:50:16Z</time>
      </trkpt>
      <trkpt lat="43.29115" lon="2.79095">
        <ele>283</ele>
        <time>2010-01-01T00:50:21Z</time>
      </trkpt>
      <trkpt lat="43.29111" lon="2.79103">
        <ele>283</ele>
        <time>2010-01-01T00:50:23Z</time>
      </trkpt>
      <trkpt lat="43.2911" lon="2.79114">
        <ele>284</ele>
        <time>2010-01-01T00:50:27Z</time>
      </trkpt>
      <trkpt lat="43.29111" lon="2.79121">
        <ele>284</ele>
        <time>2010-01-01T00:50:29Z</time>
      </trkpt>
      <trkpt lat="43.29116" lon="2.79128">
        <ele>284</ele>
        <time>2010-01-01T00:50:31Z</time>
      </trkpt>
      <trkpt lat="43.2915" lon="2.79161">
        <ele>283</ele>
        <time>2010-01-01T00:50:48Z</time>
      </trkpt>
      <trkpt lat="43.29161" lon="2.79179">
        <ele>285</ele>
        <time>2010-01-01T00:50:55Z</time>
      </trkpt>
      <trkpt lat="43.29181" lon="2.79229">
        <ele>287</ele>
        <time>2010-01-01T00:51:12Z</time>
      </trkpt>
      <trkpt lat="43.29182" lon="2.79241">
        <ele>287</ele>
        <time>2010-01-01T00:51:15Z</time>
      </trkpt>
      <trkpt lat="43.2918" lon="2.79304">
        <ele>290</ele>
        <time>2010-01-01T00:51:34Z</time>
      </trkpt>
      <trkpt lat="43.29176" lon="2.79324">
        <ele>291</ele>
        <time>2010-01-01T00:51:40Z</time>
      </trkpt>
      <trkpt lat="43.29167" lon="2.79341">
        <ele>291</ele>
        <time>2010-01-01T00:51:46Z</time>
      </trkpt>
      <trkpt lat="43.29154" lon="2.79361">
        <ele>292</ele>
        <time>2010-01-01T00:51:54Z</time>
      </trkpt>
      <trkpt lat="43.29118" lon="2.79403">
        <ele>290</ele>
        <time>2010-01-01T00:52:12Z</time>
      </trkpt>
      <trkpt lat="43.29108" lon="2.79411">
        <ele>290</ele>
        <time>2010-01-01T00:52:17Z</time>
      </trkpt>
      <trkpt lat="43.29082" lon="2.7942">
        <ele>287</ele>
        <time>2010-01-01T00:52:28Z</time>
      </trkpt>
      <trkpt lat="43.29071" lon="2.7942">
        <ele>287</ele>
        <time>2010-01-01T00:52:32Z</time>
      </trkpt>
      <trkpt lat="43.2912" lon="2.79481">
        <ele>282</ele>
        <time>2010-01-01T00:52:59Z</time>
      </trkpt>
      <trkpt lat="43.2912" lon="2.7948">
        <ele>283</ele>
        <time>2010-01-01T00:52:59Z</time>
      </trkpt>
      <trkpt lat="43.29172" lon="2.79546">
        <ele>278</ele>
        <time>2010-01-01T00:53:27Z</time>
      </trkpt>
      <trkpt lat="43.29199" lon="2.79571">
        <ele>278</ele>
        <time>2010-01-01T00:53:40Z</time>
      </trkpt>
      <trkpt lat="43.29209" lon="2.79573">
        <ele>279</ele>
        <time>2010-01-01T00:53:44Z</time>
      </trkpt>
      <trkpt lat="43.29223" lon="2.79572">
        <ele>280</ele>
        <time>2010-01-01T00:53:50Z</time>
      </trkpt>
      <trkpt lat="43.29235" lon="2.79559">
        <ele>279</ele>
        <time>2010-01-01T00:53:56Z</time>
      </trkpt>
      <trkpt lat="43.29249" lon="2.79541">
        <ele>278</ele>
        <time>2010-01-01T00:54:04Z</time>
      </trkpt>
      <trkpt lat="43.29274" lon="2.79486">
        <ele>274</ele>
        <time>2010-01-01T00:54:23Z</time>
      </trkpt>
      <trkpt lat="43.29278" lon="2.79453">
        <ele>272</ele>
        <time>2010-01-01T00:54:32Z</time>
      </trkpt>
      <trkpt lat="43.29283" lon="2.79442">
        <ele>270</ele>
        <time>2010-01-01T00:54:36Z</time>
      </trkpt>
      <trkpt lat="43.29289" lon="2.79443">
        <ele>269</ele>
        <time>2010-01-01T00:54:39Z</time>
      </trkpt>
      <trkpt lat="43.2929" lon="2.79453">
        <ele>270</ele>
        <time>2010-01-01T00:54:42Z</time>
      </trkpt>
      <trkpt lat="43.29286" lon="2.79501">
        <ele>271</ele>
        <time>2010-01-01T00:54:56Z</time>
      </trkpt>
      <trkpt lat="43.29288" lon="2.7953">
        <ele>270</ele>
        <time>2010-01-01T00:55:04Z</time>
      </trkpt>
      <trkpt lat="43.29303" lon="2.79604">
        <ele>264</ele>
        <time>2010-01-01T00:55:26Z</time>
      </trkpt>
      <trkpt lat="43.29318" lon="2.79656">
        <ele>261</ele>
        <time>2010-01-01T00:55:43Z</time>
      </trkpt>
      <trkpt lat="43.29334" lon="2.79698">
        <ele>259</ele>
        <time>2010-01-01T00:55:57Z</time>
      </trkpt>
      <trkpt lat="43.29366" lon="2.79758">
        <ele>255</ele>
        <time>2010-01-01T00:56:18Z</time>
      </trkpt>
      <trkpt lat="43.29376" lon="2.79784">
        <ele>252</ele>
        <time>2010-01-01T00:56:27Z</time>
      </trkpt>
      <trkpt lat="43.2938" lon="2.79817">
        <ele>250</ele>
        <time>2010-01-01T00:56:37Z</time>
      </trkpt>
      <trkpt lat="43.29382" lon="2.79853">
        <ele>250</ele>
        <time>2010-01-01T00:56:47Z</time>
      </trkpt>
      <trkpt lat="43.29388" lon="2.79892">
        <ele>249</ele>
        <time>2010-01-01T00:56:59Z</time>
      </trkpt>
      <trkpt lat="43.29457" lon="2.80108">
        <ele>247</ele>
        <time>2010-01-01T00:58:07Z</time>
      </trkpt>
      <trkpt lat="43.29477" lon="2.80179">
        <ele>247</ele>
        <time>2010-01-01T00:58:30Z</time>
      </trkpt>
      <trkpt lat="43.29501" lon="2.80274">
        <ele>244</ele>
        <time>2010-01-01T00:58:59Z</time>
      </trkpt>
      <trkpt lat="43.29519" lon="2.80342">
        <ele>237</ele>
        <time>2010-01-01T00:59:20Z</time>
      </trkpt>
      <trkpt lat="43.2952" lon="2.80357">
        <ele>236</ele>
        <time>2010-01-01T00:59:24Z</time>
      </trkpt>
      <trkpt lat="43.2952" lon="2.80356">
        <ele>236</ele>
        <time>2010-01-01T00:59:25Z</time>
      </trkpt>
      <trkpt lat="43.29521" lon="2.80389">
        <ele>234</ele>
        <time>2010-01-01T00:59:34Z</time>
      </trkpt>
      <trkpt lat="43.29517" lon="2.80397">
        <ele>233</ele>
        <time>2010-01-01T00:59:37Z</time>
      </trkpt>
      <trkpt lat="43.29512" lon="2.80402">
        <ele>233</ele>
        <time>2010-01-01T00:59:40Z</time>
      </trkpt>
      <trkpt lat="43.29498" lon="2.80399">
        <ele>231</ele>
        <time>2010-01-01T00:59:45Z</time>
      </trkpt>
      <trkpt lat="43.29457" lon="2.80365">
        <ele>227</ele>
        <time>2010-01-01T01:00:04Z</time>
      </trkpt>
      <trkpt lat="43.29443" lon="2.8035">
        <ele>226</ele>
        <time>2010-01-01T01:00:12Z</time>
      </trkpt>
      <trkpt lat="43.29426" lon="2.80304">
        <ele>228</ele>
        <time>2010-01-01T01:00:27Z</time>
      </trkpt>
      <trkpt lat="43.29406" lon="2.80282">
        <ele>226</ele>
        <time>2010-01-01T01:00:37Z</time>
      </trkpt>
      <trkpt lat="43.29394" lon="2.80267">
        <ele>225</ele>
        <time>2010-01-01T01:00:43Z</time>
      </trkpt>
      <trkpt lat="43.29375" lon="2.80197">
        <ele>224</ele>
        <time>2010-01-01T01:01:05Z</time>
      </trkpt>
      <trkpt lat="43.29365" lon="2.80139">
        <ele>223</ele>
        <time>2010-01-01T01:01:22Z</time>
      </trkpt>
      <trkpt lat="43.29356" lon="2.80109">
        <ele>222</ele>
        <time>2010-01-01T01:01:32Z</time>
      </trkpt>
      <trkpt lat="43.29346" lon="2.80095">
        <ele>220</ele>
        <time>2010-01-01T01:01:38Z</time>
      </trkpt>
      <trkpt lat="43.29333" lon="2.8008">
        <ele>216</ele>
        <time>2010-01-01T01:01:44Z</time>
      </trkpt>
      <trkpt lat="43.29323" lon="2.80057">
        <ele>216</ele>
        <time>2010-01-01T01:01:52Z</time>
      </trkpt>
      <trkpt lat="43.29307" lon="2.8">
        <ele>218</ele>
        <time>2010-01-01T01:02:10Z</time>
      </trkpt>
      <trkpt lat="43.29297" lon="2.79985">
        <ele>219</ele>
        <time>2010-01-01T01:02:16Z</time>
      </trkpt>
      <trkpt lat="43.29278" lon="2.79968">
        <ele>220</ele>
        <time>2010-01-01T01:02:25Z</time>
      </trkpt>
      <trkpt lat="43.29258" lon="2.79954">
        <ele>221</ele>
        <time>2010-01-01T01:02:34Z</time>
      </trkpt>
      <trkpt lat="43.29224" lon="2.79955">
        <ele>217</ele>
        <time>2010-01-01T01:02:48Z</time>
      </trkpt>
      <trkpt lat="43.29211" lon="2.7995">
        <ele>216</ele>
        <time>2010-01-01T01:02:53Z</time>
      </trkpt>
      <trkpt lat="43.29196" lon="2.79935">
        <ele>216</ele>
        <time>2010-01-01T01:03:00Z</time>
      </trkpt>
      <trkpt lat="43.29179" lon="2.79924">
        <ele>214</ele>
        <time>2010-01-01T01:03:08Z</time>
      </trkpt>
      <trkpt lat="43.29169" lon="2.7992">
        <ele>213</ele>
        <time>2010-01-01T01:03:12Z</time>
      </trkpt>
      <trkpt lat="43.29162" lon="2.79907">
        <ele>212</ele>
        <time>2010-01-01T01:03:17Z</time>
      </trkpt>
      <trkpt lat="43.29158" lon="2.7985">
        <ele>217</ele>
        <time>2010-01-01T01:03:34Z</time>
      </trkpt>
      <trkpt lat="43.29152" lon="2.79835">
        <ele>218</ele>
        <time>2010-01-01T01:03:39Z</time>
      </trkpt>
      <trkpt lat="43.29151" lon="2.79835">
        <ele>217</ele>
        <time>2010-01-01T01:03:39Z</time>
      </trkpt>
      <trkpt lat="43.29119" lon="2.79811">
        <ele>215</ele>
        <time>2010-01-01T01:03:54Z</time>
      </trkpt>
      <trkpt lat="43.29107" lon="2.79791">
        <ele>216</ele>
        <time>2010-01-01T01:04:01Z</time>
      </trkpt>
      <trkpt lat="43.29102" lon="2.79772">
        <ele>219</ele>
        <time>2010-01-01T01:04:07Z</time>
      </trkpt>
      <trkpt lat="43.29087" lon="2.79758">
        <ele>222</ele>
        <time>2010-01-01T01:04:14Z</time>
      </trkpt>
      <trkpt lat="43.29051" lon="2.79741">
        <ele>229</ele>
        <time>2010-01-01T01:04:29Z</time>
      </trkpt>
      <trkpt lat="43.2904" lon="2.79742">
        <ele>229</ele>
        <time>2010-01-01T01:04:34Z</time>
      </trkpt>
      <trkpt lat="43.29034" lon="2.79746">
        <ele>229</ele>
        <time>2010-01-01T01:04:37Z</time>
      </trkpt>
      <trkpt lat="43.29033" lon="2.79758">
        <ele>227</ele>
        <time>2010-01-01T01:04:40Z</time>
      </trkpt>
      <trkpt lat="43.29039" lon="2.79787">
        <ele>221</ele>
        <time>2010-01-01T01:04:49Z</time>
      </trkpt>
      <trkpt lat="43.29041" lon="2.79808">
        <ele>217</ele>
        <time>2010-01-01T01:04:55Z</time>
      </trkpt>
      <trkpt lat="43.29061" lon="2.79857">
        <ele>207</ele>
        <time>2010-01-01T01:05:11Z</time>
      </trkpt>
      <trkpt lat="43.29066" lon="2.79879">
        <ele>203</ele>
        <time>2010-01-01T01:05:18Z</time>
      </trkpt>
      <trkpt lat="43.29067" lon="2.79903">
        <ele>199</ele>
        <time>2010-01-01T01:05:25Z</time>
      </trkpt>
      <trkpt lat="43.29065" lon="2.79944">
        <ele>194</ele>
        <time>2010-01-01T01:05:37Z</time>
      </trkpt>
      <trkpt lat="43.29059" lon="2.79971">
        <ele>191</ele>
        <time>2010-01-01T01:05:45Z</time>
      </trkpt>
      <trkpt lat="43.29056" lon="2.79966">
        <ele>191</ele>
        <time>2010-01-01T01:05:47Z</time>
      </trkpt>
      <trkpt lat="43.29052" lon="2.79964">
        <ele>192</ele>
        <time>2010-01-01T01:05:49Z</time>
      </trkpt>
      <trkpt lat="43.29047" lon="2.79968">
        <ele>192</ele>
        <time>2010-01-01T01:05:51Z</time>
      </trkpt>
      <trkpt lat="43.29039" lon="2.79981">
        <ele>192</ele>
        <time>2010-01-01T01:05:56Z</time>
      </trkpt>
      <trkpt lat="43.29031" lon="2.79989">
        <ele>192</ele>
        <time>2010-01-01T01:06:00Z</time>
      </trkpt>
      <trkpt lat="43.29021" lon="2.79995">
        <ele>191</ele>
        <time>2010-01-01T01:06:05Z</time>
      </trkpt>
      <trkpt lat="43.2901" lon="2.79995">
        <ele>191</ele>
        <time>2010-01-01T01:06:09Z</time>
      </trkpt>
      <trkpt lat="43.2898" lon="2.79981">
        <ele>193</ele>
        <time>2010-01-01T01:06:22Z</time>
      </trkpt>
      <trkpt lat="43.28967" lon="2.79971">
        <ele>195</ele>
        <time>2010-01-01T01:06:28Z</time>
      </trkpt>
      <trkpt lat="43.28941" lon="2.79941">
        <ele>198</ele>
        <time>2010-01-01T01:06:41Z</time>
      </trkpt>
      <trkpt lat="43.28936" lon="2.79923">
        <ele>200</ele>
        <time>2010-01-01T01:06:47Z</time>
      </trkpt>
      <trkpt lat="43.28938" lon="2.79922">
        <ele>200</ele>
        <time>2010-01-01T01:06:48Z</time>
      </trkpt>
      <trkpt lat="43.28957" lon="2.79918">
        <ele>203</ele>
        <time>2010-01-01T01:06:55Z</time>
      </trkpt>
      <trkpt lat="43.28962" lon="2.79909">
        <ele>204</ele>
        <time>2010-01-01T01:06:59Z</time>
      </trkpt>
      <trkpt lat="43.28965" lon="2.79893">
        <ele>206</ele>
        <time>2010-01-01T01:07:03Z</time>
      </trkpt>
      <trkpt lat="43.2896" lon="2.79828">
        <ele>211</ele>
        <time>2010-01-01T01:07:22Z</time>
      </trkpt>
      <trkpt lat="43.28951" lon="2.79803">
        <ele>214</ele>
        <time>2010-01-01T01:07:31Z</time>
      </trkpt>
      <trkpt lat="43.28931" lon="2.79764">
        <ele>218</ele>
        <time>2010-01-01T01:07:45Z</time>
      </trkpt>
      <trkpt lat="43.28909" lon="2.79735">
        <ele>220</ele>
        <time>2010-01-01T01:07:57Z</time>
      </trkpt>
      <trkpt lat="43.28894" lon="2.7969">
        <ele>221</ele>
        <time>2010-01-01T01:08:11Z</time>
      </trkpt>
      <trkpt lat="43.28885" lon="2.7965">
        <ele>224</ele>
        <time>2010-01-01T01:08:23Z</time>
      </trkpt>
      <trkpt lat="43.28873" lon="2.79627">
        <ele>225</ele>
        <time>2010-01-01T01:08:32Z</time>
      </trkpt>
      <trkpt lat="43.28873" lon="2.79626">
        <ele>226</ele>
        <time>2010-01-01T01:08:32Z</time>
      </trkpt>
      <trkpt lat="43.2886" lon="2.79614">
        <ele>225</ele>
        <time>2010-01-01T01:08:38Z</time>
      </trkpt>
      <trkpt lat="43.28819" lon="2.79582">
        <ele>226</ele>
        <time>2010-01-01T01:08:57Z</time>
      </trkpt>
      <trkpt lat="43.28811" lon="2.79569">
        <ele>226</ele>
        <time>2010-01-01T01:09:02Z</time>
      </trkpt>
      <trkpt lat="43.28808" lon="2.79544">
        <ele>228</ele>
        <time>2010-01-01T01:09:09Z</time>
      </trkpt>
      <trkpt lat="43.2881" lon="2.79487">
        <ele>231</ele>
        <time>2010-01-01T01:09:26Z</time>
      </trkpt>
      <trkpt lat="43.28796" lon="2.79435">
        <ele>233</ele>
        <time>2010-01-01T01:09:42Z</time>
      </trkpt>
      <trkpt lat="43.28781" lon="2.79366">
        <ele>234</ele>
        <time>2010-01-01T01:10:03Z</time>
      </trkpt>
      <trkpt lat="43.28776" lon="2.79338">
        <ele>235</ele>
        <time>2010-01-01T01:10:12Z</time>
      </trkpt>
      <trkpt lat="43.28777" lon="2.79325">
        <ele>236</ele>
        <time>2010-01-01T01:10:15Z</time>
      </trkpt>
      <trkpt lat="43.28778" lon="2.79318">
        <ele>236</ele>
        <time>2010-01-01T01:10:17Z</time>
      </trkpt>
      <trkpt lat="43.28801" lon="2.79259">
        <ele>243</ele>
        <time>2010-01-01T01:10:37Z</time>
      </trkpt>
      <trkpt lat="43.28803" lon="2.79235">
        <ele>244</ele>
        <time>2010-01-01T01:10:44Z</time>
      </trkpt>
      <trkpt lat="43.28802" lon="2.792">
        <ele>245</ele>
        <time>2010-01-01T01:10:54Z</time>
      </trkpt>
      <trkpt lat="43.28803" lon="2.79181">
        <ele>245</ele>
        <time>2010-01-01T01:11:00Z</time>
      </trkpt>
      <trkpt lat="43.28811" lon="2.7911">
        <ele>245</ele>
        <time>2010-01-01T01:11:21Z</time>
      </trkpt>
      <trkpt lat="43.28819" lon="2.79093">
        <ele>248</ele>
        <time>2010-01-01T01:11:27Z</time>
      </trkpt>
      <trkpt lat="43.28828" lon="2.79082">
        <ele>251</ele>
        <time>2010-01-01T01:11:31Z</time>
      </trkpt>
      <trkpt lat="43.28826" lon="2.7907">
        <ele>251</ele>
        <time>2010-01-01T01:11:35Z</time>
      </trkpt>
      <trkpt lat="43.28826" lon="2.79069">
        <ele>251</ele>
        <time>2010-01-01T01:11:35Z</time>
      </trkpt>
      <trkpt lat="43.28822" lon="2.79053">
        <ele>251</ele>
        <time>2010-01-01T01:11:40Z</time>
      </trkpt>
      <trkpt lat="43.28811" lon="2.79027">
        <ele>251</ele>
        <time>2010-01-01T01:11:49Z</time>
      </trkpt>
      <trkpt lat="43.28792" lon="2.78997">
        <ele>248</ele>
        <time>2010-01-01T01:12:01Z</time>
      </trkpt>
      <trkpt lat="43.28773" lon="2.78973">
        <ele>245</ele>
        <time>2010-01-01T01:12:11Z</time>
      </trkpt>
      <trkpt lat="43.28756" lon="2.78947">
        <ele>243</ele>
        <time>2010-01-01T01:12:21Z</time>
      </trkpt>
      <trkpt lat="43.28734" lon="2.78898">
        <ele>240</ele>
        <time>2010-01-01T01:12:38Z</time>
      </trkpt>
      <trkpt lat="43.28729" lon="2.78881">
        <ele>239</ele>
        <time>2010-01-01T01:12:43Z</time>
      </trkpt>
      <trkpt lat="43.28727" lon="2.78861">
        <ele>238</ele>
        <time>2010-01-01T01:12:49Z</time>
      </trkpt>
      <trkpt lat="43.28733" lon="2.7878">
        <ele>242</ele>
        <time>2010-01-01T01:13:13Z</time>
      </trkpt>
      <trkpt lat="43.28732" lon="2.78766">
        <ele>243</ele>
        <time>2010-01-01T01:13:17Z</time>
      </trkpt>
      <trkpt lat="43.28726" lon="2.78754">
        <ele>242</ele>
        <time>2010-01-01T01:13:21Z</time>
      </trkpt>
      <trkpt lat="43.287" lon="2.78743">
        <ele>241</ele>
        <time>2010-01-01T01:13:32Z</time>
      </trkpt>
      <trkpt lat="43.28684" lon="2.78745">
        <ele>240</ele>
        <time>2010-01-01T01:13:38Z</time>
      </trkpt>
      <trkpt lat="43.28601" lon="2.78773">
        <ele>239</ele>
        <time>2010-01-01T01:14:13Z</time>
      </trkpt>
      <trkpt lat="43.28567" lon="2.78781">
        <ele>243</ele>
        <time>2010-01-01T01:14:26Z</time>
      </trkpt>
      <trkpt lat="43.28552" lon="2.78794">
        <ele>243</ele>
        <time>2010-01-01T01:14:34Z</time>
      </trkpt>
      <trkpt lat="43.28535" lon="2.78824">
        <ele>242</ele>
        <time>2010-01-01T01:14:45Z</time>
      </trkpt>
      <trkpt lat="43.28498" lon="2.78873">
        <ele>241</ele>
        <time>2010-01-01T01:15:05Z</time>
      </trkpt>
      <trkpt lat="43.28468" lon="2.78895">
        <ele>242</ele>
        <time>2010-01-01T01:15:19Z</time>
      </trkpt>
      <trkpt lat="43.28442" lon="2.78925">
        <ele>239</ele>
        <time>2010-01-01T01:15:32Z</time>
      </trkpt>
      <trkpt lat="43.28434" lon="2.7893">
        <ele>238</ele>
        <time>2010-01-01T01:15:36Z</time>
      </trkpt>
      <trkpt lat="43.28434" lon="2.78931">
        <ele>237</ele>
        <time>2010-01-01T01:15:36Z</time>
      </trkpt>
      <trkpt lat="43.28423" lon="2.78935">
        <ele>237</ele>
        <time>2010-01-01T01:15:41Z</time>
      </trkpt>
      <trkpt lat="43.28419" lon="2.78933">
        <ele>237</ele>
        <time>2010-01-01T01:15:42Z</time>
      </trkpt>
      <trkpt lat="43.28421" lon="2.78925">
        <ele>238</ele>
        <time>2010-01-01T01:15:45Z</time>
      </trkpt>
      <trkpt lat="43.28427" lon="2.78916">
        <ele>240</ele>
        <time>2010-01-01T01:15:49Z</time>
      </trkpt>
      <trkpt lat="43.28433" lon="2.78888">
        <ele>244</ele>
        <time>2010-01-01T01:15:57Z</time>
      </trkpt>
      <trkpt lat="43.2845" lon="2.78859">
        <ele>249</ele>
        <time>2010-01-01T01:16:08Z</time>
      </trkpt>
      <trkpt lat="43.28454" lon="2.78844">
        <ele>250</ele>
        <time>2010-01-01T01:16:13Z</time>
      </trkpt>
      <trkpt lat="43.28466" lon="2.78833">
        <ele>252</ele>
        <time>2010-01-01T01:16:18Z</time>
      </trkpt>
      <trkpt lat="43.28471" lon="2.78827">
        <ele>253</ele>
        <time>2010-01-01T01:16:21Z</time>
      </trkpt>
      <trkpt lat="43.28475" lon="2.78818">
        <ele>253</ele>
        <time>2010-01-01T01:16:24Z</time>
      </trkpt>
      <trkpt lat="43.28485" lon="2.78788">
        <ele>253</ele>
        <time>2010-01-01T01:16:34Z</time>
      </trkpt>
      <trkpt lat="43.28486" lon="2.78773">
        <ele>255</ele>
        <time>2010-01-01T01:16:38Z</time>
      </trkpt>
      <trkpt lat="43.28493" lon="2.7875">
        <ele>258</ele>
        <time>2010-01-01T01:16:45Z</time>
      </trkpt>
      <trkpt lat="43.28497" lon="2.78721">
        <ele>262</ele>
        <time>2010-01-01T01:16:54Z</time>
      </trkpt>
      <trkpt lat="43.28501" lon="2.78706">
        <ele>264</ele>
        <time>2010-01-01T01:16:59Z</time>
      </trkpt>
      <trkpt lat="43.28507" lon="2.78698">
        <ele>265</ele>
        <time>2010-01-01T01:17:02Z</time>
      </trkpt>
      <trkpt lat="43.28517" lon="2.78692">
        <ele>265</ele>
        <time>2010-01-01T01:17:06Z</time>
      </trkpt>
      <trkpt lat="43.28521" lon="2.78686">
        <ele>266</ele>
        <time>2010-01-01T01:17:09Z</time>
      </trkpt>
      <trkpt lat="43.28527" lon="2.78672">
        <ele>268</ele>
        <time>2010-01-01T01:17:13Z</time>
      </trkpt>
      <trkpt lat="43.28533" lon="2.78671">
        <ele>267</ele>
        <time>2010-01-01T01:17:16Z</time>
      </trkpt>
      <trkpt lat="43.2854" lon="2.78665">
        <ele>268</ele>
        <time>2010-01-01T01:17:19Z</time>
      </trkpt>
      <trkpt lat="43.28549" lon="2.7865">
        <ele>270</ele>
        <time>2010-01-01T01:17:25Z</time>
      </trkpt>
      <trkpt lat="43.28556" lon="2.78631">
        <ele>272</ele>
        <time>2010-01-01T01:17:31Z</time>
      </trkpt>
      <trkpt lat="43.28577" lon="2.78579">
        <ele>275</ele>
        <time>2010-01-01T01:17:48Z</time>
      </trkpt>
      <trkpt lat="43.2858" lon="2.78568">
        <ele>275</ele>
        <time>2010-01-01T01:17:52Z</time>
      </trkpt>
      <trkpt lat="43.28581" lon="2.78546">
        <ele>275</ele>
        <time>2010-01-01T01:17:58Z</time>
      </trkpt>
      <trkpt lat="43.28579" lon="2.7852">
        <ele>275</ele>
        <time>2010-01-01T01:18:06Z</time>
      </trkpt>
      <trkpt lat="43.28561" lon="2.78416">
        <ele>271</ele>
        <time>2010-01-01T01:18:37Z</time>
      </trkpt>
      <trkpt lat="43.28549" lon="2.78387">
        <ele>269</ele>
        <time>2010-01-01T01:18:47Z</time>
      </trkpt>
      <trkpt lat="43.28522" lon="2.78306">
        <ele>262</ele>
        <time>2010-01-01T01:19:13Z</time>
      </trkpt>
      <trkpt lat="43.28522" lon="2.78305">
        <ele>262</ele>
        <time>2010-01-01T01:19:13Z</time>
      </trkpt>
      <trkpt lat="43.28499" lon="2.78202">
        <ele>252</ele>
        <time>2010-01-01T01:19:44Z</time>
      </trkpt>
      <trkpt lat="43.28499" lon="2.78193">
        <ele>251</ele>
        <time>2010-01-01T01:19:47Z</time>
      </trkpt>
      <trkpt lat="43.2851" lon="2.78154">
        <ele>252</ele>
        <time>2010-01-01T01:19:59Z</time>
      </trkpt>
      <trkpt lat="43.28519" lon="2.78115">
        <ele>252</ele>
        <time>2010-01-01T01:20:11Z</time>
      </trkpt>
      <trkpt lat="43.28529" lon="2.78091">
        <ele>254</ele>
        <time>2010-01-01T01:20:19Z</time>
      </trkpt>
      <trkpt lat="43.28542" lon="2.78041">
        <ele>258</ele>
        <time>2010-01-01T01:20:35Z</time>
      </trkpt>
      <trkpt lat="43.2856" lon="2.77958">
        <ele>263</ele>
        <time>2010-01-01T01:21:00Z</time>
      </trkpt>
      <trkpt lat="43.28565" lon="2.77938">
        <ele>263</ele>
        <time>2010-01-01T01:21:06Z</time>
      </trkpt>
      <trkpt lat="43.2856" lon="2.77929">
        <ele>263</ele>
        <time>2010-01-01T01:21:09Z</time>
      </trkpt>
      <trkpt lat="43.28555" lon="2.77926">
        <ele>263</ele>
        <time>2010-01-01T01:21:11Z</time>
      </trkpt>
      <trkpt lat="43.28554" lon="2.77926">
        <ele>263</ele>
        <time>2010-01-01T01:21:12Z</time>
      </trkpt>
      <trkpt lat="43.28551" lon="2.77923">
        <ele>263</ele>
        <time>2010-01-01T01:21:13Z</time>
      </trkpt>
      <trkpt lat="43.2853" lon="2.77919">
        <ele>263</ele>
        <time>2010-01-01T01:21:22Z</time>
      </trkpt>
      <trkpt lat="43.28523" lon="2.77913">
        <ele>263</ele>
        <time>2010-01-01T01:21:25Z</time>
      </trkpt>
      <trkpt lat="43.28519" lon="2.77904">
        <ele>263</ele>
        <time>2010-01-01T01:21:28Z</time>
      </trkpt>
      <trkpt lat="43.28504" lon="2.77894">
        <ele>263</ele>
        <time>2010-01-01T01:21:35Z</time>
      </trkpt>
      <trkpt lat="43.28499" lon="2.77881">
        <ele>263</ele>
        <time>2010-01-01T01:21:39Z</time>
      </trkpt>
      <trkpt lat="43.28493" lon="2.77878">
        <ele>263</ele>
        <time>2010-01-01T01:21:42Z</time>
      </trkpt>
      <trkpt lat="43.28467" lon="2.77879">
        <ele>262</ele>
        <time>2010-01-01T01:21:52Z</time>
      </trkpt>
      <trkpt lat="43.28455" lon="2.77877">
        <ele>261</ele>
        <time>2010-01-01T01:21:57Z</time>
      </trkpt>
      <trkpt lat="43.28439" lon="2.77869">
        <ele>260</ele>
        <time>2010-01-01T01:22:04Z</time>
      </trkpt>
      <trkpt lat="43.28438" lon="2.77869">
        <ele>260</ele>
        <time>2010-01-01T01:22:04Z</time>
      </trkpt>
      <trkpt lat="43.2843" lon="2.77862">
        <ele>259</ele>
        <time>2010-01-01T01:22:08Z</time>
      </trkpt>
      <trkpt lat="43.28418" lon="2.77858">
        <ele>258</ele>
        <time>2010-01-01T01:22:13Z</time>
      </trkpt>
      <trkpt lat="43.28416" lon="2.77854">
        <ele>258</ele>
        <time>2010-01-01T01:22:14Z</time>
      </trkpt>
      <trkpt lat="43.28416" lon="2.77848">
        <ele>258</ele>
        <time>2010-01-01T01:22:16Z</time>
      </trkpt>
      <trkpt lat="43.28412" lon="2.77843">
        <ele>257</ele>
        <time>2010-01-01T01:22:18Z</time>
      </trkpt>
      <trkpt lat="43.28401" lon="2.77838">
        <ele>256</ele>
        <time>2010-01-01T01:22:23Z</time>
      </trkpt>
      <trkpt lat="43.28384" lon="2.77838">
        <ele>254</ele>
        <time>2010-01-01T01:22:30Z</time>
      </trkpt>
      <trkpt lat="43.28346" lon="2.77832">
        <ele>248</ele>
        <time>2010-01-01T01:22:45Z</time>
      </trkpt>
      <trkpt lat="43.28326" lon="2.77847">
        <ele>248</ele>
        <time>2010-01-01T01:22:54Z</time>
      </trkpt>
      <trkpt lat="43.28323" lon="2.77846">
        <ele>247</ele>
        <time>2010-01-01T01:22:55Z</time>
      </trkpt>
      <trkpt lat="43.2832" lon="2.77839">
        <ele>246</ele>
        <time>2010-01-01T01:22:58Z</time>
      </trkpt>
      <trkpt lat="43.28313" lon="2.77835">
        <ele>245</ele>
        <time>2010-01-01T01:23:01Z</time>
      </trkpt>
      <trkpt lat="43.28301" lon="2.77833">
        <ele>243</ele>
        <time>2010-01-01T01:23:06Z</time>
      </trkpt>
      <trkpt lat="43.28294" lon="2.77835">
        <ele>243</ele>
        <time>2010-01-01T01:23:08Z</time>
      </trkpt>
      <trkpt lat="43.28275" lon="2.7783">
        <ele>242</ele>
        <time>2010-01-01T01:23:16Z</time>
      </trkpt>
      <trkpt lat="43.28274" lon="2.7783">
        <ele>242</ele>
        <time>2010-01-01T01:23:17Z</time>
      </trkpt>
      <trkpt lat="43.28258" lon="2.77826">
        <ele>241</ele>
        <time>2010-01-01T01:23:23Z</time>
      </trkpt>
      <trkpt lat="43.28252" lon="2.7782">
        <ele>240</ele>
        <time>2010-01-01T01:23:26Z</time>
      </trkpt>
      <trkpt lat="43.28244" lon="2.7781">
        <ele>239</ele>
        <time>2010-01-01T01:23:30Z</time>
      </trkpt>
      <trkpt lat="43.2824" lon="2.77791">
        <ele>237</ele>
        <time>2010-01-01T01:23:36Z</time>
      </trkpt>
      <trkpt lat="43.28232" lon="2.77778">
        <ele>235</ele>
        <time>2010-01-01T01:23:41Z</time>
      </trkpt>
      <trkpt lat="43.28229" lon="2.77767">
        <ele>233</ele>
        <time>2010-01-01T01:23:45Z</time>
      </trkpt>
      <trkpt lat="43.28225" lon="2.77761">
        <ele>233</ele>
        <time>2010-01-01T01:23:47Z</time>
      </trkpt>
      <trkpt lat="43.28215" lon="2.77759">
        <ele>233</ele>
        <time>2010-01-01T01:23:51Z</time>
      </trkpt>
      <trkpt lat="43.28212" lon="2.77754">
        <ele>232</ele>
        <time>2010-01-01T01:23:53Z</time>
      </trkpt>
      <trkpt lat="43.28208" lon="2.77728">
        <ele>229</ele>
        <time>2010-01-01T01:24:01Z</time>
      </trkpt>
      <trkpt lat="43.282" lon="2.77725">
        <ele>229</ele>
        <time>2010-01-01T01:24:04Z</time>
      </trkpt>
      <trkpt lat="43.28193" lon="2.77713">
        <ele>227</ele>
        <time>2010-01-01T01:24:08Z</time>
      </trkpt>
      <trkpt lat="43.28187" lon="2.7771">
        <ele>226</ele>
        <time>2010-01-01T01:24:11Z</time>
      </trkpt>
      <trkpt lat="43.28172" lon="2.77691">
        <ele>224</ele>
        <time>2010-01-01T01:24:19Z</time>
      </trkpt>
      <trkpt lat="43.28157" lon="2.777">
        <ele>225</ele>
        <time>2010-01-01T01:24:26Z</time>
      </trkpt>
      <trkpt lat="43.28148" lon="2.77701">
        <ele>224</ele>
        <time>2010-01-01T01:24:29Z</time>
      </trkpt>
      <trkpt lat="43.28138" lon="2.77707">
        <ele>224</ele>
        <time>2010-01-01T01:24:34Z</time>
      </trkpt>
      <trkpt lat="43.28133" lon="2.77707">
        <ele>223</ele>
        <time>2010-01-01T01:24:36Z</time>
      </trkpt>
      <trkpt lat="43.28126" lon="2.77701">
        <ele>222</ele>
        <time>2010-01-01T01:24:39Z</time>
      </trkpt>
      <trkpt lat="43.28125" lon="2.77701">
        <ele>222</ele>
        <time>2010-01-01T01:24:39Z</time>
      </trkpt>
      <trkpt lat="43.28121" lon="2.77694">
        <ele>221</ele>
        <time>2010-01-01T01:24:42Z</time>
      </trkpt>
      <trkpt lat="43.28109" lon="2.77684">
        <ele>218</ele>
        <time>2010-01-01T01:24:48Z</time>
      </trkpt>
      <trkpt lat="43.28108" lon="2.77679">
        <ele>218</ele>
        <time>2010-01-01T01:24:49Z</time>
      </trkpt>
      <trkpt lat="43.28112" lon="2.77667">
        <ele>218</ele>
        <time>2010-01-01T01:24:53Z</time>
      </trkpt>
      <trkpt lat="43.28111" lon="2.77663">
        <ele>217</ele>
        <time>2010-01-01T01:24:54Z</time>
      </trkpt>
      <trkpt lat="43.28109" lon="2.77661">
        <ele>216</ele>
        <time>2010-01-01T01:24:55Z</time>
      </trkpt>
      <trkpt lat="43.28106" lon="2.77662">
        <ele>216</ele>
        <time>2010-01-01T01:24:56Z</time>
      </trkpt>
      <trkpt lat="43.28101" lon="2.77671">
        <ele>216</ele>
        <time>2010-01-01T01:25:00Z</time>
      </trkpt>
      <trkpt lat="43.28099" lon="2.7767">
        <ele>215</ele>
        <time>2010-01-01T01:25:01Z</time>
      </trkpt>
      <trkpt lat="43.28086" lon="2.77657">
        <ele>212</ele>
        <time>2010-01-01T01:25:07Z</time>
      </trkpt>
      <trkpt lat="43.28076" lon="2.77643">
        <ele>209</ele>
        <time>2010-01-01T01:25:13Z</time>
      </trkpt>
      <trkpt lat="43.28072" lon="2.77641">
        <ele>209</ele>
        <time>2010-01-01T01:25:14Z</time>
      </trkpt>
      <trkpt lat="43.28064" lon="2.77644">
        <ele>207</ele>
        <time>2010-01-01T01:25:18Z</time>
      </trkpt>
      <trkpt lat="43.2806" lon="2.7765">
        <ele>207</ele>
        <time>2010-01-01T01:25:20Z</time>
      </trkpt>
      <trkpt lat="43.28051" lon="2.77643">
        <ele>205</ele>
        <time>2010-01-01T01:25:24Z</time>
      </trkpt>
      <trkpt lat="43.28048" lon="2.77636">
        <ele>204</ele>
        <time>2010-01-01T01:25:27Z</time>
      </trkpt>
      <trkpt lat="43.28042" lon="2.7763">
        <ele>202</ele>
        <time>2010-01-01T01:25:30Z</time>
      </trkpt>
      <trkpt lat="43.2804" lon="2.77624">
        <ele>202</ele>
        <time>2010-01-01T01:25:31Z</time>
      </trkpt>
      <trkpt lat="43.28031" lon="2.77618">
        <ele>200</ele>
        <time>2010-01-01T01:25:35Z</time>
      </trkpt>
      <trkpt lat="43.28026" lon="2.77619">
        <ele>199</ele>
        <time>2010-01-01T01:25:37Z</time>
      </trkpt>
      <trkpt lat="43.28016" lon="2.77615">
        <ele>196</ele>
        <time>2010-01-01T01:25:42Z</time>
      </trkpt>
      <trkpt lat="43.28015" lon="2.77611">
        <ele>196</ele>
        <time>2010-01-01T01:25:43Z</time>
      </trkpt>
      <trkpt lat="43.28005" lon="2.77607">
        <ele>193</ele>
        <time>2010-01-01T01:25:47Z</time>
      </trkpt>
      <trkpt lat="43.27996" lon="2.77611">
        <ele>191</ele>
        <time>2010-01-01T01:25:51Z</time>
      </trkpt>
      <trkpt lat="43.27998" lon="2.77577">
        <ele>190</ele>
        <time>2010-01-01T01:26:01Z</time>
      </trkpt>
      <trkpt lat="43.28" lon="2.77559">
        <ele>190</ele>
        <time>2010-01-01T01:26:06Z</time>
      </trkpt>
      <trkpt lat="43.27999" lon="2.77545">
        <ele>188</ele>
        <time>2010-01-01T01:26:10Z</time>
      </trkpt>
      <trkpt lat="43.27988" lon="2.77527">
        <ele>184</ele>
        <time>2010-01-01T01:26:17Z</time>
      </trkpt>
      <trkpt lat="43.2797" lon="2.77506">
        <ele>176</ele>
        <time>2010-01-01T01:26:26Z</time>
      </trkpt>
      <trkpt lat="43.27966" lon="2.77493">
        <ele>174</ele>
        <time>2010-01-01T01:26:31Z</time>
      </trkpt>
      <trkpt lat="43.27967" lon="2.77482">
        <ele>172</ele>
        <time>2010-01-01T01:26:34Z</time>
      </trkpt>
      <trkpt lat="43.2797" lon="2.77469">
        <ele>171</ele>
        <time>2010-01-01T01:26:38Z</time>
      </trkpt>
      <trkpt lat="43.27981" lon="2.77441">
        <ele>168</ele>
        <time>2010-01-01T01:26:47Z</time>
      </trkpt>
      <trkpt lat="43.27999" lon="2.77412">
        <ele>164</ele>
        <time>2010-01-01T01:26:58Z</time>
      </trkpt>
      <trkpt lat="43.28002" lon="2.77395">
        <ele>161</ele>
        <time>2010-01-01T01:27:03Z</time>
      </trkpt>
      <trkpt lat="43.28004" lon="2.77368">
        <ele>156</ele>
        <time>2010-01-01T01:27:11Z</time>
      </trkpt>
      <trkpt lat="43.28006" lon="2.77361">
        <ele>155</ele>
        <time>2010-01-01T01:27:13Z</time>
      </trkpt>
      <trkpt lat="43.28013" lon="2.77352">
        <ele>156</ele>
        <time>2010-01-01T01:27:17Z</time>
      </trkpt>
      <trkpt lat="43.28026" lon="2.77343">
        <ele>157</ele>
        <time>2010-01-01T01:27:23Z</time>
      </trkpt>
      <trkpt lat="43.28031" lon="2.77337">
        <ele>158</ele>
        <time>2010-01-01T01:27:26Z</time>
      </trkpt>
      <trkpt lat="43.28035" lon="2.77324">
        <ele>160</ele>
        <time>2010-01-01T01:27:30Z</time>
      </trkpt>
      <trkpt lat="43.28034" lon="2.77318">
        <ele>160</ele>
        <time>2010-01-01T01:27:32Z</time>
      </trkpt>
      <trkpt lat="43.28032" lon="2.77314">
        <ele>159</ele>
        <time>2010-01-01T01:27:33Z</time>
      </trkpt>
      <trkpt lat="43.28027" lon="2.77309">
        <ele>158</ele>
        <time>2010-01-01T01:27:36Z</time>
      </trkpt>
      <trkpt lat="43.28006" lon="2.77293">
        <ele>155</ele>
        <time>2010-01-01T01:27:45Z</time>
      </trkpt>
      <trkpt lat="43.28001" lon="2.77287">
        <ele>154</ele>
        <time>2010-01-01T01:27:48Z</time>
      </trkpt>
      <trkpt lat="43.27998" lon="2.77278">
        <ele>154</ele>
        <time>2010-01-01T01:27:51Z</time>
      </trkpt>
      <trkpt lat="43.28018" lon="2.77219">
        <ele>159</ele>
        <time>2010-01-01T01:28:10Z</time>
      </trkpt>
      <trkpt lat="43.28032" lon="2.7719">
        <ele>160</ele>
        <time>2010-01-01T01:28:20Z</time>
      </trkpt>
      <trkpt lat="43.2803" lon="2.77188">
        <ele>160</ele>
        <time>2010-01-01T01:28:21Z</time>
      </trkpt>
      <trkpt lat="43.28029" lon="2.77188">
        <ele>159</ele>
        <time>2010-01-01T01:28:21Z</time>
      </trkpt>
      <trkpt lat="43.28032" lon="2.7719">
        <ele>160</ele>
        <time>2010-01-01T01:28:23Z</time>
      </trkpt>
      <trkpt lat="43.2804" lon="2.77174">
        <ele>161</ele>
        <time>2010-01-01T01:28:28Z</time>
      </trkpt>
      <trkpt lat="43.28057" lon="2.77133">
        <ele>161</ele>
        <time>2010-01-01T01:28:42Z</time>
      </trkpt>
      <trkpt lat="43.28074" lon="2.77109">
        <ele>162</ele>
        <time>2010-01-01T01:28:52Z</time>
      </trkpt>
      <trkpt lat="43.28111" lon="2.77049">
        <ele>161</ele>
        <time>2010-01-01T01:29:15Z</time>
      </trkpt>
      <trkpt lat="43.28117" lon="2.77034">
        <ele>160</ele>
        <time>2010-01-01T01:29:20Z</time>
      </trkpt>
      <trkpt lat="43.28123" lon="2.77012">
        <ele>159</ele>
        <time>2010-01-01T01:29:26Z</time>
      </trkpt>
      <trkpt lat="43.28144" lon="2.76986">
        <ele>158</ele>
        <time>2010-01-01T01:29:38Z</time>
      </trkpt>
      <trkpt lat="43.28155" lon="2.7698">
        <ele>158</ele>
        <time>2010-01-01T01:29:42Z</time>
      </trkpt>
      <trkpt lat="43.28176" lon="2.76974">
        <ele>160</ele>
        <time>2010-01-01T01:29:51Z</time>
      </trkpt>
      <trkpt lat="43.28205" lon="2.76974">
        <ele>165</ele>
        <time>2010-01-01T01:30:03Z</time>
      </trkpt>
      <trkpt lat="43.28239" lon="2.76981">
        <ele>169</ele>
        <time>2010-01-01T01:30:16Z</time>
      </trkpt>
      <trkpt lat="43.28277" lon="2.76998">
        <ele>173</ele>
        <time>2010-01-01T01:30:32Z</time>
      </trkpt>
      <trkpt lat="43.28296" lon="2.77013">
        <ele>176</ele>
        <time>2010-01-01T01:30:41Z</time>
      </trkpt>
      <trkpt lat="43.28304" lon="2.77025">
        <ele>177</ele>
        <time>2010-01-01T01:30:46Z</time>
      </trkpt>
      <trkpt lat="43.28304" lon="2.77024">
        <ele>177</ele>
        <time>2010-01-01T01:30:46Z</time>
      </trkpt>
      <trkpt lat="43.28309" lon="2.77038">
        <ele>178</ele>
        <time>2010-01-01T01:30:51Z</time>
      </trkpt>
      <trkpt lat="43.28315" lon="2.77111">
        <ele>185</ele>
        <time>2010-01-01T01:31:12Z</time>
      </trkpt>
      <trkpt lat="43.28319" lon="2.77127">
        <ele>187</ele>
        <time>2010-01-01T01:31:17Z</time>
      </trkpt>
      <trkpt lat="43.28324" lon="2.77138">
        <ele>188</ele>
        <time>2010-01-01T01:31:21Z</time>
      </trkpt>
      <trkpt lat="43.28333" lon="2.77143">
        <ele>188</ele>
        <time>2010-01-01T01:31:25Z</time>
      </trkpt>
      <trkpt lat="43.28344" lon="2.77145">
        <ele>188</ele>
        <time>2010-01-01T01:31:29Z</time>
      </trkpt>
      <trkpt lat="43.28383" lon="2.77132">
        <ele>185</ele>
        <time>2010-01-01T01:31:45Z</time>
      </trkpt>
      <trkpt lat="43.28393" lon="2.77132">
        <ele>184</ele>
        <time>2010-01-01T01:31:49Z</time>
      </trkpt>
      <trkpt lat="43.284" lon="2.77139">
        <ele>185</ele>
        <time>2010-01-01T01:31:53Z</time>
      </trkpt>
      <trkpt lat="43.28413" lon="2.77186">
        <ele>194</ele>
        <time>2010-01-01T01:32:07Z</time>
      </trkpt>
      <trkpt lat="43.2842" lon="2.77195">
        <ele>195</ele>
        <time>2010-01-01T01:32:11Z</time>
      </trkpt>
      <trkpt lat="43.2843" lon="2.77202">
        <ele>194</ele>
        <time>2010-01-01T01:32:16Z</time>
      </trkpt>
      <trkpt lat="43.28459" lon="2.77213">
        <ele>194</ele>
        <time>2010-01-01T01:32:28Z</time>
      </trkpt>
      <trkpt lat="43.28473" lon="2.77216">
        <ele>195</ele>
        <time>2010-01-01T01:32:33Z</time>
      </trkpt>
      <trkpt lat="43.28481" lon="2.77221">
        <ele>196</ele>
        <time>2010-01-01T01:32:37Z</time>
      </trkpt>
      <trkpt lat="43.28489" lon="2.77229">
        <ele>197</ele>
        <time>2010-01-01T01:32:41Z</time>
      </trkpt>
      <trkpt lat="43.28494" lon="2.77241">
        <ele>199</ele>
        <time>2010-01-01T01:32:45Z</time>
      </trkpt>
      <trkpt lat="43.28506" lon="2.7731">
        <ele>206</ele>
        <time>2010-01-01T01:33:06Z</time>
      </trkpt>
      <trkpt lat="43.28506" lon="2.77309">
        <ele>206</ele>
        <time>2010-01-01T01:33:06Z</time>
      </trkpt>
      <trkpt lat="43.28511" lon="2.77341">
        <ele>209</ele>
        <time>2010-01-01T01:33:15Z</time>
      </trkpt>
      <trkpt lat="43.2851" lon="2.77353">
        <ele>211</ele>
        <time>2010-01-01T01:33:19Z</time>
      </trkpt>
      <trkpt lat="43.28505" lon="2.7736">
        <ele>212</ele>
        <time>2010-01-01T01:33:22Z</time>
      </trkpt>
      <trkpt lat="43.28494" lon="2.77393">
        <ele>220</ele>
        <time>2010-01-01T01:33:32Z</time>
      </trkpt>
      <trkpt lat="43.28495" lon="2.77424">
        <ele>227</ele>
        <time>2010-01-01T01:33:41Z</time>
      </trkpt>
      <trkpt lat="43.28491" lon="2.77428">
        <ele>228</ele>
        <time>2010-01-01T01:33:43Z</time>
      </trkpt>
      <trkpt lat="43.28486" lon="2.77433">
        <ele>230</ele>
        <time>2010-01-01T01:33:46Z</time>
      </trkpt>
      <trkpt lat="43.28472" lon="2.77439">
        <ele>232</ele>
        <time>2010-01-01T01:33:52Z</time>
      </trkpt>
      <trkpt lat="43.28436" lon="2.77499">
        <ele>242</ele>
        <time>2010-01-01T01:34:14Z</time>
      </trkpt>
      <trkpt lat="43.28432" lon="2.77535">
        <ele>246</ele>
        <time>2010-01-01T01:34:25Z</time>
      </trkpt>
      <trkpt lat="43.28445" lon="2.7754">
        <ele>247</ele>
        <time>2010-01-01T01:34:30Z</time>
      </trkpt>
      <trkpt lat="43.28455" lon="2.77554">
        <ele>250</ele>
        <time>2010-01-01T01:34:36Z</time>
      </trkpt>
      <trkpt lat="43.28461" lon="2.77557">
        <ele>251</ele>
        <time>2010-01-01T01:34:39Z</time>
      </trkpt>
      <trkpt lat="43.2846" lon="2.77557">
        <ele>251</ele>
        <time>2010-01-01T01:34:39Z</time>
      </trkpt>
      <trkpt lat="43.28482" lon="2.77569">
        <ele>254</ele>
        <time>2010-01-01T01:34:49Z</time>
      </trkpt>
      <trkpt lat="43.28512" lon="2.77602">
        <ele>258</ele>
        <time>2010-01-01T01:35:04Z</time>
      </trkpt>
      <trkpt lat="43.28521" lon="2.77618">
        <ele>259</ele>
        <time>2010-01-01T01:35:10Z</time>
      </trkpt>
      <trkpt lat="43.28537" lon="2.77627">
        <ele>258</ele>
        <time>2010-01-01T01:35:17Z</time>
      </trkpt>
      <trkpt lat="43.28549" lon="2.77646">
        <ele>257</ele>
        <time>2010-01-01T01:35:24Z</time>
      </trkpt>
      <trkpt lat="43.28569" lon="2.77673">
        <ele>253</ele>
        <time>2010-01-01T01:35:35Z</time>
      </trkpt>
      <trkpt lat="43.2857" lon="2.77695">
        <ele>254</ele>
        <time>2010-01-01T01:35:42Z</time>
      </trkpt>
      <trkpt lat="43.28582" lon="2.77741">
        <ele>255</ele>
        <time>2010-01-01T01:35:56Z</time>
      </trkpt>
      <trkpt lat="43.28582" lon="2.77787">
        <ele>260</ele>
        <time>2010-01-01T01:36:09Z</time>
      </trkpt>
      <trkpt lat="43.28582" lon="2.77786">
        <ele>260</ele>
        <time>2010-01-01T01:36:10Z</time>
      </trkpt>
      <trkpt lat="43.28586" lon="2.77804">
        <ele>260</ele>
        <time>2010-01-01T01:36:15Z</time>
      </trkpt>
      <trkpt lat="43.286" lon="2.77825">
        <ele>259</ele>
        <time>2010-01-01T01:36:24Z</time>
      </trkpt>
      <trkpt lat="43.28633" lon="2.77839">
        <ele>259</ele>
        <time>2010-01-01T01:36:37Z</time>
      </trkpt>
      <trkpt lat="43.28632" lon="2.77839">
        <ele>259</ele>
        <time>2010-01-01T01:36:38Z</time>
      </trkpt>
      <trkpt lat="43.28645" lon="2.77843">
        <ele>259</ele>
        <time>2010-01-01T01:36:43Z</time>
      </trkpt>
      <trkpt lat="43.28667" lon="2.77844">
        <ele>259</ele>
        <time>2010-01-01T01:36:52Z</time>
      </trkpt>
      <trkpt lat="43.28702" lon="2.77873">
        <ele>260</ele>
        <time>2010-01-01T01:37:08Z</time>
      </trkpt>
      <trkpt lat="43.28718" lon="2.77888">
        <ele>262</ele>
        <time>2010-01-01T01:37:16Z</time>
      </trkpt>
      <trkpt lat="43.28732" lon="2.77897">
        <ele>264</ele>
        <time>2010-01-01T01:37:22Z</time>
      </trkpt>
      <trkpt lat="43.28756" lon="2.77901">
        <ele>266</ele>
        <time>2010-01-01T01:37:32Z</time>
      </trkpt>
      <trkpt lat="43.28757" lon="2.77904">
        <ele>266</ele>
        <time>2010-01-01T01:37:33Z</time>
      </trkpt>
      <trkpt lat="43.28757" lon="2.77903">
        <ele>266</ele>
        <time>2010-01-01T01:37:33Z</time>
      </trkpt>
      <trkpt lat="43.28771" lon="2.77937">
        <ele>271</ele>
        <time>2010-01-01T01:37:44Z</time>
      </trkpt>
      <trkpt lat="43.2877" lon="2.77953">
        <ele>272</ele>
        <time>2010-01-01T01:37:49Z</time>
      </trkpt>
      <trkpt lat="43.28727" lon="2.78011">
        <ele>274</ele>
        <time>2010-01-01T01:38:13Z</time>
      </trkpt>
      <trkpt lat="43.28735" lon="2.78024">
        <ele>276</ele>
        <time>2010-01-01T01:38:18Z</time>
      </trkpt>
      <trkpt lat="43.28747" lon="2.78036">
        <ele>277</ele>
        <time>2010-01-01T01:38:24Z</time>
      </trkpt>
      <trkpt lat="43.28748" lon="2.7804">
        <ele>277</ele>
        <time>2010-01-01T01:38:25Z</time>
      </trkpt>
      <trkpt lat="43.28748" lon="2.78039">
        <ele>277</ele>
        <time>2010-01-01T01:38:26Z</time>
      </trkpt>
      <trkpt lat="43.28762" lon="2.78104">
        <ele>280</ele>
        <time>2010-01-01T01:38:45Z</time>
      </trkpt>
      <trkpt lat="43.28781" lon="2.78162">
        <ele>283</ele>
        <time>2010-01-01T01:39:04Z</time>
      </trkpt>
      <trkpt lat="43.28779" lon="2.78176">
        <ele>284</ele>
        <time>2010-01-01T01:39:08Z</time>
      </trkpt>
      <trkpt lat="43.28792" lon="2.78206">
        <ele>284</ele>
        <time>2010-01-01T01:39:18Z</time>
      </trkpt>
      <trkpt lat="43.28798" lon="2.78211">
        <ele>284</ele>
        <time>2010-01-01T01:39:21Z</time>
      </trkpt>
      <trkpt lat="43.28798" lon="2.7821">
        <ele>284</ele>
        <time>2010-01-01T01:39:21Z</time>
      </trkpt>
      <trkpt lat="43.28812" lon="2.78223">
        <ele>283</ele>
        <time>2010-01-01T01:39:28Z</time>
      </trkpt>
      <trkpt lat="43.28842" lon="2.78228">
        <ele>283</ele>
        <time>2010-01-01T01:39:40Z</time>
      </trkpt>
      <trkpt lat="43.28867" lon="2.7825">
        <ele>285</ele>
        <time>2010-01-01T01:39:52Z</time>
      </trkpt>
      <trkpt lat="43.28877" lon="2.78256">
        <ele>286</ele>
        <time>2010-01-01T01:39:57Z</time>
      </trkpt>
      <trkpt lat="43.28888" lon="2.78275">
        <ele>288</ele>
        <time>2010-01-01T01:40:04Z</time>
      </trkpt>
      <trkpt lat="43.28901" lon="2.78288">
        <ele>289</ele>
        <time>2010-01-01T01:40:10Z</time>
      </trkpt>
      <trkpt lat="43.28908" lon="2.78299">
        <ele>290</ele>
        <time>2010-01-01T01:40:14Z</time>
      </trkpt>
      <trkpt lat="43.28909" lon="2.78313">
        <ele>291</ele>
        <time>2010-01-01T01:40:18Z</time>
      </trkpt>
      <trkpt lat="43.28906" lon="2.78328">
        <ele>291</ele>
        <time>2010-01-01T01:40:23Z</time>
      </trkpt>
      <trkpt lat="43.28904" lon="2.78387">
        <ele>293</ele>
        <time>2010-01-01T01:40:40Z</time>
      </trkpt>
      <trkpt lat="43.28909" lon="2.78408">
        <ele>293</ele>
        <time>2010-01-01T01:40:47Z</time>
      </trkpt>
      <trkpt lat="43.28913" lon="2.78413">
        <ele>293</ele>
        <time>2010-01-01T01:40:49Z</time>
      </trkpt>
      <trkpt lat="43.2892" lon="2.78414">
        <ele>293</ele>
        <time>2010-01-01T01:40:52Z</time>
      </trkpt>
      <trkpt lat="43.28931" lon="2.78412">
        <ele>293</ele>
        <time>2010-01-01T01:40:56Z</time>
      </trkpt>
      <trkpt lat="43.28938" lon="2.78417">
        <ele>293</ele>
        <time>2010-01-01T01:40:59Z</time>
      </trkpt>
      <trkpt lat="43.2895" lon="2.78432">
        <ele>292</ele>
        <time>2010-01-01T01:41:06Z</time>
      </trkpt>
      <trkpt lat="43.28969" lon="2.78442">
        <ele>290</ele>
        <time>2010-01-01T01:41:14Z</time>
      </trkpt>
      <trkpt lat="43.28995" lon="2.78466">
        <ele>288</ele>
        <time>2010-01-01T01:41:26Z</time>
      </trkpt>
      <trkpt lat="43.29002" lon="2.78483">
        <ele>289</ele>
        <time>2010-01-01T01:41:32Z</time>
      </trkpt>
      <trkpt lat="43.29014" lon="2.78497">
        <ele>289</ele>
        <time>2010-01-01T01:41:38Z</time>
      </trkpt>
      <trkpt lat="43.29025" lon="2.78514">
        <ele>290</ele>
        <time>2010-01-01T01:41:45Z</time>
      </trkpt>
      <trkpt lat="43.29029" lon="2.78527">
        <ele>290</ele>
        <time>2010-01-01T01:41:49Z</time>
      </trkpt>
      <trkpt lat="43.29034" lon="2.78535">
        <ele>291</ele>
        <time>2010-01-01T01:41:52Z</time>
      </trkpt>
      <trkpt lat="43.29036" lon="2.78545">
        <ele>291</ele>
        <time>2010-01-01T01:41:55Z</time>
      </trkpt>
      <trkpt lat="43.29042" lon="2.78555">
        <ele>292</ele>
        <time>2010-01-01T01:41:59Z</time>
      </trkpt>
      <trkpt lat="43.29049" lon="2.78556">
        <ele>292</ele>
        <time>2010-01-01T01:42:02Z</time>
      </trkpt>
      <trkpt lat="43.29056" lon="2.7856">
        <ele>293</ele>
        <time>2010-01-01T01:42:05Z</time>
      </trkpt>
      <trkpt lat="43.29065" lon="2.78573">
        <ele>294</ele>
        <time>2010-01-01T01:42:10Z</time>
      </trkpt>
      <trkpt lat="43.29079" lon="2.786">
        <ele>296</ele>
        <time>2010-01-01T01:42:20Z</time>
      </trkpt>
      <trkpt lat="43.29093" lon="2.78612">
        <ele>296</ele>
        <time>2010-01-01T01:42:26Z</time>
      </trkpt>
      <trkpt lat="43.2911" lon="2.78636">
        <ele>296</ele>
        <time>2010-01-01T01:42:36Z</time>
      </trkpt>
      <trkpt lat="43.29128" lon="2.78664">
        <ele>297</ele>
        <time>2010-01-01T01:42:47Z</time>
      </trkpt>
      <trkpt lat="43.29136" lon="2.78688">
        <ele>298</ele>
        <time>2010-01-01T01:42:55Z</time>
      </trkpt>
      <trkpt lat="43.29136" lon="2.78687">
        <ele>298</ele>
        <time>2010-01-01T01:42:55Z</time>
      </trkpt>
      <trkpt lat="43.2914" lon="2.787">
        <ele>299</ele>
        <time>2010-01-01T01:42:59Z</time>
      </trkpt>
      <trkpt lat="43.29143" lon="2.78719">
        <ele>299</ele>
        <time>2010-01-01T01:43:05Z</time>
      </trkpt>
      <trkpt lat="43.29153" lon="2.78738">
        <ele>299</ele>
        <time>2010-01-01T01:43:12Z</time>
      </trkpt>
      <trkpt lat="43.29159" lon="2.78742">
        <ele>299</ele>
        <time>2010-01-01T01:43:14Z</time>
      </trkpt>
      <trkpt lat="43.29173" lon="2.78746">
        <ele>299</ele>
        <time>2010-01-01T01:43:20Z</time>
      </trkpt>
      <trkpt lat="43.2919" lon="2.78754">
        <ele>298</ele>
        <time>2010-01-01T01:43:27Z</time>
      </trkpt>
      <trkpt lat="43.29208" lon="2.7877">
        <ele>295</ele>
        <time>2010-01-01T01:43:36Z</time>
      </trkpt>
      <trkpt lat="43.29219" lon="2.78771">
        <ele>293</ele>
        <time>2010-01-01T01:43:40Z</time>
      </trkpt>
      <trkpt lat="43.29232" lon="2.78767">
        <ele>292</ele>
        <time>2010-01-01T01:43:45Z</time>
      </trkpt>
      <trkpt lat="43.29242" lon="2.78774">
        <ele>290</ele>
        <time>2010-01-01T01:43:50Z</time>
      </trkpt>
      <trkpt lat="43.29258" lon="2.78791">
        <ele>286</ele>
        <time>2010-01-01T01:43:58Z</time>
      </trkpt>
      <trkpt lat="43.29273" lon="2.78797">
        <ele>282</ele>
        <time>2010-01-01T01:44:04Z</time>
      </trkpt>
      <trkpt lat="43.29291" lon="2.78814">
        <ele>280</ele>
        <time>2010-01-01T01:44:13Z</time>
      </trkpt>
      <trkpt lat="43.29296" lon="2.78825">
        <ele>279</ele>
        <time>2010-01-01T01:44:17Z</time>
      </trkpt>
      <trkpt lat="43.29301" lon="2.78842">
        <ele>280</ele>
        <time>2010-01-01T01:44:22Z</time>
      </trkpt>
      <trkpt lat="43.2932" lon="2.78881">
        <ele>280</ele>
        <time>2010-01-01T01:44:36Z</time>
      </trkpt>
      <trkpt lat="43.29336" lon="2.78877">
        <ele>278</ele>
        <time>2010-01-01T01:44:42Z</time>
      </trkpt>
      <trkpt lat="43.29357" lon="2.78886">
        <ele>275</ele>
        <time>2010-01-01T01:44:51Z</time>
      </trkpt>
      <trkpt lat="43.29367" lon="2.78908">
        <ele>275</ele>
        <time>2010-01-01T01:44:59Z</time>
      </trkpt>
      <trkpt lat="43.29382" lon="2.78913">
        <ele>275</ele>
        <time>2010-01-01T01:45:05Z</time>
      </trkpt>
      <trkpt lat="43.29397" lon="2.78934">
        <ele>275</ele>
        <time>2010-01-01T01:45:13Z</time>
      </trkpt>
      <trkpt lat="43.29401" lon="2.78945">
        <ele>276</ele>
        <time>2010-01-01T01:45:17Z</time>
      </trkpt>
      <trkpt lat="43.29407" lon="2.78951">
        <ele>276</ele>
        <time>2010-01-01T01:45:20Z</time>
      </trkpt>
      <trkpt lat="43.29411" lon="2.78959">
        <ele>276</ele>
        <time>2010-01-01T01:45:23Z</time>
      </trkpt>
      <trkpt lat="43.2942" lon="2.78973">
        <ele>276</ele>
        <time>2010-01-01T01:45:28Z</time>
      </trkpt>
      <trkpt lat="43.29423" lon="2.78979">
        <ele>276</ele>
        <time>2010-01-01T01:45:30Z</time>
      </trkpt>
      <trkpt lat="43.29422" lon="2.78979">
        <ele>276</ele>
        <time>2010-01-01T01:45:31Z</time>
      </trkpt>
      <trkpt lat="43.29426" lon="2.78997">
        <ele>276</ele>
        <time>2010-01-01T01:45:36Z</time>
      </trkpt>
      <trkpt lat="43.29424" lon="2.79013">
        <ele>276</ele>
        <time>2010-01-01T01:45:41Z</time>
      </trkpt>
      <trkpt lat="43.29427" lon="2.79047">
        <ele>277</ele>
        <time>2010-01-01T01:45:51Z</time>
      </trkpt>
      <trkpt lat="43.29431" lon="2.79061">
        <ele>278</ele>
        <time>2010-01-01T01:45:55Z</time>
      </trkpt>
      <trkpt lat="43.29461" lon="2.79092">
        <ele>278</ele>
        <time>2010-01-01T01:46:10Z</time>
      </trkpt>
      <trkpt lat="43.29483" lon="2.79128">
        <ele>279</ele>
        <time>2010-01-01T01:46:24Z</time>
      </trkpt>
      <trkpt lat="43.29491" lon="2.7915">
        <ele>280</ele>
        <time>2010-01-01T01:46:31Z</time>
      </trkpt>
      <trkpt lat="43.29516" lon="2.7919">
        <ele>279</ele>
        <time>2010-01-01T01:46:47Z</time>
      </trkpt>
      <trkpt lat="43.29528" lon="2.79234">
        <ele>279</ele>
        <time>2010-01-01T01:47:00Z</time>
      </trkpt>
      <trkpt lat="43.29536" lon="2.79253">
        <ele>279</ele>
        <time>2010-01-01T01:47:07Z</time>
      </trkpt>
      <trkpt lat="43.29547" lon="2.79269">
        <ele>278</ele>
        <time>2010-01-01T01:47:13Z</time>
      </trkpt>
      <trkpt lat="43.29556" lon="2.79281">
        <ele>277</ele>
        <time>2010-01-01T01:47:18Z</time>
      </trkpt>
      <trkpt lat="43.29571" lon="2.79292">
        <ele>276</ele>
        <time>2010-01-01T01:47:25Z</time>
      </trkpt>
      <trkpt lat="43.29577" lon="2.79301">
        <ele>276</ele>
        <time>2010-01-01T01:47:29Z</time>
      </trkpt>
      <trkpt lat="43.29629" lon="2.7943">
        <ele>271</ele>
        <time>2010-01-01T01:48:11Z</time>
      </trkpt>
      <trkpt lat="43.29629" lon="2.79429">
        <ele>271</ele>
        <time>2010-01-01T01:48:12Z</time>
      </trkpt>
      <trkpt lat="43.29644" lon="2.79468">
        <ele>270</ele>
        <time>2010-01-01T01:48:25Z</time>
      </trkpt>
      <trkpt lat="43.29647" lon="2.7949">
        <ele>270</ele>
        <time>2010-01-01T01:48:31Z</time>
      </trkpt>
      <trkpt lat="43.29645" lon="2.79493">
        <ele>270</ele>
        <time>2010-01-01T01:48:32Z</time>
      </trkpt>
      <trkpt lat="43.29637" lon="2.79503">
        <ele>270</ele>
        <time>2010-01-01T01:48:37Z</time>
      </trkpt>
      <trkpt lat="43.29628" lon="2.79495">
        <ele>269</ele>
        <time>2010-01-01T01:48:41Z</time>
      </trkpt>
      <trkpt lat="43.2962" lon="2.7951">
        <ele>268</ele>
        <time>2010-01-01T01:48:46Z</time>
      </trkpt>
      <trkpt lat="43.29617" lon="2.79524">
        <ele>267</ele>
        <time>2010-01-01T01:48:51Z</time>
      </trkpt>
      <trkpt lat="43.29618" lon="2.79543">
        <ele>267</ele>
        <time>2010-01-01T01:48:56Z</time>
      </trkpt>
      <trkpt lat="43.29627" lon="2.79579">
        <ele>267</ele>
        <time>2010-01-01T01:49:07Z</time>
      </trkpt>
      <trkpt lat="43.29654" lon="2.7963">
        <ele>267</ele>
        <time>2010-01-01T01:49:26Z</time>
      </trkpt>
      <trkpt lat="43.29698" lon="2.79677">
        <ele>271</ele>
        <time>2010-01-01T01:49:48Z</time>
      </trkpt>
      <trkpt lat="43.29705" lon="2.79687">
        <ele>271</ele>
        <time>2010-01-01T01:49:52Z</time>
      </trkpt>
      <trkpt lat="43.2971" lon="2.79703">
        <ele>269</ele>
        <time>2010-01-01T01:49:57Z</time>
      </trkpt>
      <trkpt lat="43.29747" lon="2.79776">
        <ele>266</ele>
        <time>2010-01-01T01:50:23Z</time>
      </trkpt>
      <trkpt lat="43.29778" lon="2.79825">
        <ele>263</ele>
        <time>2010-01-01T01:50:42Z</time>
      </trkpt>
      <trkpt lat="43.29804" lon="2.79854">
        <ele>259</ele>
        <time>2010-01-01T01:50:55Z</time>
      </trkpt>
      <trkpt lat="43.2981" lon="2.79864">
        <ele>259</ele>
        <time>2010-01-01T01:50:59Z</time>
      </trkpt>
      <trkpt lat="43.29809" lon="2.79864">
        <ele>259</ele>
        <time>2010-01-01T01:50:59Z</time>
      </trkpt>
      <trkpt lat="43.29825" lon="2.7989">
        <ele>260</ele>
        <time>2010-01-01T01:51:09Z</time>
      </trkpt>
      <trkpt lat="43.29849" lon="2.79941">
        <ele>261</ele>
        <time>2010-01-01T01:51:27Z</time>
      </trkpt>
      <trkpt lat="43.29876" lon="2.80014">
        <ele>259</ele>
        <time>2010-01-01T01:51:51Z</time>
      </trkpt>
      <trkpt lat="43.29887" lon="2.8003">
        <ele>259</ele>
        <time>2010-01-01T01:51:57Z</time>
      </trkpt>
      <trkpt lat="43.29904" lon="2.80067">
        <ele>258</ele>
        <time>2010-01-01T01:52:10Z</time>
      </trkpt>
      <trkpt lat="43.29923" lon="2.80097">
        <ele>258</ele>
        <time>2010-01-01T01:52:22Z</time>
      </trkpt>
      <trkpt lat="43.29955" lon="2.80129">
        <ele>257</ele>
        <time>2010-01-01T01:52:38Z</time>
      </trkpt>
      <trkpt lat="43.29954" lon="2.80129">
        <ele>257</ele>
        <time>2010-01-01T01:52:38Z</time>
      </trkpt>
      <trkpt lat="43.29959" lon="2.80133">
        <ele>257</ele>
        <time>2010-01-01T01:52:40Z</time>
      </trkpt>
      <trkpt lat="43.2997" lon="2.80136">
        <ele>257</ele>
        <time>2010-01-01T01:52:45Z</time>
      </trkpt>
      <trkpt lat="43.29977" lon="2.80133">
        <ele>256</ele>
        <time>2010-01-01T01:52:48Z</time>
      </trkpt>
      <trkpt lat="43.29984" lon="2.80136">
        <ele>255</ele>
        <time>2010-01-01T01:52:51Z</time>
      </trkpt>
      <trkpt lat="43.2999" lon="2.80153">
        <ele>254</ele>
        <time>2010-01-01T01:52:56Z</time>
      </trkpt>
      <trkpt lat="43.30005" lon="2.80177">
        <ele>251</ele>
        <time>2010-01-01T01:53:05Z</time>
      </trkpt>
      <trkpt lat="43.30022" lon="2.80195">
        <ele>247</ele>
        <time>2010-01-01T01:53:14Z</time>
      </trkpt>
      <trkpt lat="43.30046" lon="2.80211">
        <ele>245</ele>
        <time>2010-01-01T01:53:25Z</time>
      </trkpt>
      <trkpt lat="43.30072" lon="2.80252">
        <ele>244</ele>
        <time>2010-01-01T01:53:40Z</time>
      </trkpt>
      <trkpt lat="43.30079" lon="2.80257">
        <ele>243</ele>
        <time>2010-01-01T01:53:44Z</time>
      </trkpt>
      <trkpt lat="43.30085" lon="2.80276">
        <ele>242</ele>
        <time>2010-01-01T01:53:50Z</time>
      </trkpt>
      <trkpt lat="43.30098" lon="2.803">
        <ele>241</ele>
        <time>2010-01-01T01:53:58Z</time>
      </trkpt>
      <trkpt lat="43.30113" lon="2.80318">
        <ele>239</ele>
        <time>2010-01-01T01:54:06Z</time>
      </trkpt>
      <trkpt lat="43.30126" lon="2.8034">
        <ele>238</ele>
        <time>2010-01-01T01:54:15Z</time>
      </trkpt>
      <trkpt lat="43.30148" lon="2.80373">
        <ele>236</ele>
        <time>2010-01-01T01:54:28Z</time>
      </trkpt>
      <trkpt lat="43.30159" lon="2.80396">
        <ele>235</ele>
        <time>2010-01-01T01:54:36Z</time>
      </trkpt>
      <trkpt lat="43.30166" lon="2.80421">
        <ele>233</ele>
        <time>2010-01-01T01:54:43Z</time>
      </trkpt>
      <trkpt lat="43.30173" lon="2.80438">
        <ele>232</ele>
        <time>2010-01-01T01:54:49Z</time>
      </trkpt>
      <trkpt lat="43.30186" lon="2.80452">
        <ele>231</ele>
        <time>2010-01-01T01:54:56Z</time>
      </trkpt>
      <trkpt lat="43.30194" lon="2.80468">
        <ele>231</ele>
        <time>2010-01-01T01:55:01Z</time>
      </trkpt>
      <trkpt lat="43.302" lon="2.80488">
        <ele>229</ele>
        <time>2010-01-01T01:55:08Z</time>
      </trkpt>
      <trkpt lat="43.30205" lon="2.80503">
        <ele>227</ele>
        <time>2010-01-01T01:55:12Z</time>
      </trkpt>
      <trkpt lat="43.30212" lon="2.80514">
        <ele>225</ele>
        <time>2010-01-01T01:55:17Z</time>
      </trkpt>
      <trkpt lat="43.30232" lon="2.8053">
        <ele>221</ele>
        <time>2010-01-01T01:55:26Z</time>
      </trkpt>
      <trkpt lat="43.30244" lon="2.8056">
        <ele>219</ele>
        <time>2010-01-01T01:55:36Z</time>
      </trkpt>
      <trkpt lat="43.30265" lon="2.80594">
        <ele>219</ele>
        <time>2010-01-01T01:55:49Z</time>
      </trkpt>
      <trkpt lat="43.30266" lon="2.80612">
        <ele>220</ele>
        <time>2010-01-01T01:55:54Z</time>
      </trkpt>
      <trkpt lat="43.30289" lon="2.80653">
        <ele>218</ele>
        <time>2010-01-01T01:56:09Z</time>
      </trkpt>
      <trkpt lat="43.3032" lon="2.80678">
        <ele>214</ele>
        <time>2010-01-01T01:56:24Z</time>
      </trkpt>
      <trkpt lat="43.30333" lon="2.80684">
        <ele>213</ele>
        <time>2010-01-01T01:56:29Z</time>
      </trkpt>
      <trkpt lat="43.30341" lon="2.80692">
        <ele>212</ele>
        <time>2010-01-01T01:56:33Z</time>
      </trkpt>
      <trkpt lat="43.30344" lon="2.80701">
        <ele>211</ele>
        <time>2010-01-01T01:56:36Z</time>
      </trkpt>
      <trkpt lat="43.30352" lon="2.80708">
        <ele>210</ele>
        <time>2010-01-01T01:56:40Z</time>
      </trkpt>
      <trkpt lat="43.30355" lon="2.80727">
        <ele>211</ele>
        <time>2010-01-01T01:56:45Z</time>
      </trkpt>
      <trkpt lat="43.30363" lon="2.80737">
        <ele>210</ele>
        <time>2010-01-01T01:56:50Z</time>
      </trkpt>
      <trkpt lat="43.30368" lon="2.80752">
        <ele>209</ele>
        <time>2010-01-01T01:56:55Z</time>
      </trkpt>
      <trkpt lat="43.30371" lon="2.80772">
        <ele>208</ele>
        <time>2010-01-01T01:57:01Z</time>
      </trkpt>
      <trkpt lat="43.30374" lon="2.80783">
        <ele>206</ele>
        <time>2010-01-01T01:57:04Z</time>
      </trkpt>
      <trkpt lat="43.30381" lon="2.80797">
        <ele>205</ele>
        <time>2010-01-01T01:57:09Z</time>
      </trkpt>
      <trkpt lat="43.30389" lon="2.80802">
        <ele>203</ele>
        <time>2010-01-01T01:57:12Z</time>
      </trkpt>
      <trkpt lat="43.30398" lon="2.80811">
        <ele>199</ele>
        <time>2010-01-01T01:57:17Z</time>
      </trkpt>
      <trkpt lat="43.30423" lon="2.8085">
        <ele>190</ele>
        <time>2010-01-01T01:57:32Z</time>
      </trkpt>
      <trkpt lat="43.30429" lon="2.80849">
        <ele>189</ele>
        <time>2010-01-01T01:57:34Z</time>
      </trkpt>
      <trkpt lat="43.30436" lon="2.80843">
        <ele>187</ele>
        <time>2010-01-01T01:57:38Z</time>
      </trkpt>
      <trkpt lat="43.30444" lon="2.80843">
        <ele>184</ele>
        <time>2010-01-01T01:57:41Z</time>
      </trkpt>
      <trkpt lat="43.30449" lon="2.80848">
        <ele>183</ele>
        <time>2010-01-01T01:57:43Z</time>
      </trkpt>
      <trkpt lat="43.30456" lon="2.8087">
        <ele>182</ele>
        <time>2010-01-01T01:57:50Z</time>
      </trkpt>
      <trkpt lat="43.30464" lon="2.80874">
        <ele>180</ele>
        <time>2010-01-01T01:57:54Z</time>
      </trkpt>
      <trkpt lat="43.30468" lon="2.80881">
        <ele>180</ele>
        <time>2010-01-01T01:57:56Z</time>
      </trkpt>
      <trkpt lat="43.30471" lon="2.80896">
        <ele>181</ele>
        <time>2010-01-01T01:58:01Z</time>
      </trkpt>
      <trkpt lat="43.30478" lon="2.8091">
        <ele>182</ele>
        <time>2010-01-01T01:58:06Z</time>
      </trkpt>
      <trkpt lat="43.30481" lon="2.80919">
        <ele>182</ele>
        <time>2010-01-01T01:58:09Z</time>
      </trkpt>
      <trkpt lat="43.30483" lon="2.80935">
        <ele>183</ele>
        <time>2010-01-01T01:58:14Z</time>
      </trkpt>
      <trkpt lat="43.30486" lon="2.80945">
        <ele>184</ele>
        <time>2010-01-01T01:58:17Z</time>
      </trkpt>
      <trkpt lat="43.30504" lon="2.80974">
        <ele>185</ele>
        <time>2010-01-01T01:58:28Z</time>
      </trkpt>
      <trkpt lat="43.3051" lon="2.80994">
        <ele>187</ele>
        <time>2010-01-01T01:58:34Z</time>
      </trkpt>
      <trkpt lat="43.30509" lon="2.81005">
        <ele>189</ele>
        <time>2010-01-01T01:58:37Z</time>
      </trkpt>
      <trkpt lat="43.30512" lon="2.81016">
        <ele>190</ele>
        <time>2010-01-01T01:58:41Z</time>
      </trkpt>
      <trkpt lat="43.30518" lon="2.81025">
        <ele>190</ele>
        <time>2010-01-01T01:58:44Z</time>
      </trkpt>
      <trkpt lat="43.30525" lon="2.81045">
        <ele>191</ele>
        <time>2010-01-01T01:58:51Z</time>
      </trkpt>
      <trkpt lat="43.30525" lon="2.81054">
        <ele>193</ele>
        <time>2010-01-01T01:58:53Z</time>
      </trkpt>
      <trkpt lat="43.30522" lon="2.81062">
        <ele>194</ele>
        <time>2010-01-01T01:58:56Z</time>
      </trkpt>
      <trkpt lat="43.30507" lon="2.81069">
        <ele>196</ele>
        <time>2010-01-01T01:59:02Z</time>
      </trkpt>
      <trkpt lat="43.30504" lon="2.81078">
        <ele>197</ele>
        <time>2010-01-01T01:59:05Z</time>
      </trkpt>
      <trkpt lat="43.30499" lon="2.81084">
        <ele>198</ele>
        <time>2010-01-01T01:59:08Z</time>
      </trkpt>
      <trkpt lat="43.30492" lon="2.81084">
        <ele>198</ele>
        <time>2010-01-01T01:59:11Z</time>
      </trkpt>
      <trkpt lat="43.30484" lon="2.81078">
        <ele>198</ele>
        <time>2010-01-01T01:59:14Z</time>
      </trkpt>
      <trkpt lat="43.30459" lon="2.81073">
        <ele>196</ele>
        <time>2010-01-01T01:59:24Z</time>
      </trkpt>
      <trkpt lat="43.30457" lon="2.81081">
        <ele>197</ele>
        <time>2010-01-01T01:59:27Z</time>
      </trkpt>
      <trkpt lat="43.30463" lon="2.8109">
        <ele>198</ele>
        <time>2010-01-01T01:59:30Z</time>
      </trkpt>
      <trkpt lat="43.30466" lon="2.81106">
        <ele>199</ele>
        <time>2010-01-01T01:59:35Z</time>
      </trkpt>
      <trkpt lat="43.30472" lon="2.8111">
        <ele>199</ele>
        <time>2010-01-01T01:59:38Z</time>
      </trkpt>
      <trkpt lat="43.30478" lon="2.81128">
        <ele>200</ele>
        <time>2010-01-01T01:59:44Z</time>
      </trkpt>
      <trkpt lat="43.30478" lon="2.81127">
        <ele>200</ele>
        <time>2010-01-01T01:59:44Z</time>
      </trkpt>
      <trkpt lat="43.30479" lon="2.81131">
        <ele>200</ele>
        <time>2010-01-01T01:59:45Z</time>
      </trkpt>
      <trkpt lat="43.30479" lon="2.8115">
        <ele>200</ele>
        <time>2010-01-01T01:59:51Z</time>
      </trkpt>
      <trkpt lat="43.30478" lon="2.81157">
        <ele>200</ele>
        <time>2010-01-01T01:59:53Z</time>
      </trkpt>
      <trkpt lat="43.30482" lon="2.81171">
        <ele>201</ele>
        <time>2010-01-01T01:59:57Z</time>
      </trkpt>
      <trkpt lat="43.30482" lon="2.81181">
        <ele>201</ele>
        <time>2010-01-01T02:00:00Z</time>
      </trkpt>
      <trkpt lat="43.30486" lon="2.81198">
        <ele>201</ele>
        <time>2010-01-01T02:00:05Z</time>
      </trkpt>
      <trkpt lat="43.30495" lon="2.81199">
        <ele>203</ele>
        <time>2010-01-01T02:00:09Z</time>
      </trkpt>
      <trkpt lat="43.30499" lon="2.81203">
        <ele>203</ele>
        <time>2010-01-01T02:00:11Z</time>
      </trkpt>
      <trkpt lat="43.3051" lon="2.81229">
        <ele>203</ele>
        <time>2010-01-01T02:00:20Z</time>
      </trkpt>
      <trkpt lat="43.30513" lon="2.81253">
        <ele>203</ele>
        <time>2010-01-01T02:00:27Z</time>
      </trkpt>
      <trkpt lat="43.3052" lon="2.81267">
        <ele>204</ele>
        <time>2010-01-01T02:00:32Z</time>
      </trkpt>
      <trkpt lat="43.30525" lon="2.81286">
        <ele>204</ele>
        <time>2010-01-01T02:00:38Z</time>
      </trkpt>
      <trkpt lat="43.30543" lon="2.81318">
        <ele>203</ele>
        <time>2010-01-01T02:00:49Z</time>
      </trkpt>
      <trkpt lat="43.30545" lon="2.81331">
        <ele>202</ele>
        <time>2010-01-01T02:00:53Z</time>
      </trkpt>
      <trkpt lat="43.3055" lon="2.81338">
        <ele>202</ele>
        <time>2010-01-01T02:00:56Z</time>
      </trkpt>
      <trkpt lat="43.30558" lon="2.81343">
        <ele>202</ele>
        <time>2010-01-01T02:01:00Z</time>
      </trkpt>
      <trkpt lat="43.30566" lon="2.81353">
        <ele>201</ele>
        <time>2010-01-01T02:01:04Z</time>
      </trkpt>
      <trkpt lat="43.30578" lon="2.8136">
        <ele>200</ele>
        <time>2010-01-01T02:01:09Z</time>
      </trkpt>
      <trkpt lat="43.30583" lon="2.81368">
        <ele>199</ele>
        <time>2010-01-01T02:01:12Z</time>
      </trkpt>
      <trkpt lat="43.30587" lon="2.81378">
        <ele>197</ele>
        <time>2010-01-01T02:01:16Z</time>
      </trkpt>
      <trkpt lat="43.30594" lon="2.81387">
        <ele>195</ele>
        <time>2010-01-01T02:01:19Z</time>
      </trkpt>
      <trkpt lat="43.30589" lon="2.81401">
        <ele>194</ele>
        <time>2010-01-01T02:01:24Z</time>
      </trkpt>
      <trkpt lat="43.30589" lon="2.81416">
        <ele>192</ele>
        <time>2010-01-01T02:01:28Z</time>
      </trkpt>
      <trkpt lat="43.30586" lon="2.81424">
        <ele>192</ele>
        <time>2010-01-01T02:01:31Z</time>
      </trkpt>
      <trkpt lat="43.30573" lon="2.81433">
        <ele>191</ele>
        <time>2010-01-01T02:01:37Z</time>
      </trkpt>
      <trkpt lat="43.30559" lon="2.8145">
        <ele>189</ele>
        <time>2010-01-01T02:01:44Z</time>
      </trkpt>
      <trkpt lat="43.3056" lon="2.81456">
        <ele>189</ele>
        <time>2010-01-01T02:01:46Z</time>
      </trkpt>
      <trkpt lat="43.30568" lon="2.81459">
        <ele>189</ele>
        <time>2010-01-01T02:01:49Z</time>
      </trkpt>
      <trkpt lat="43.3057" lon="2.81472">
        <ele>188</ele>
        <time>2010-01-01T02:01:53Z</time>
      </trkpt>
      <trkpt lat="43.30612" lon="2.81484">
        <ele>187</ele>
        <time>2010-01-01T02:02:10Z</time>
      </trkpt>
      <trkpt lat="43.30617" lon="2.81481">
        <ele>187</ele>
        <time>2010-01-01T02:02:13Z</time>
      </trkpt>
      <trkpt lat="43.30624" lon="2.81483">
        <ele>187</ele>
        <time>2010-01-01T02:02:16Z</time>
      </trkpt>
      <trkpt lat="43.30623" lon="2.81483">
        <ele>187</ele>
        <time>2010-01-01T02:02:16Z</time>
      </trkpt>
      <trkpt lat="43.30629" lon="2.81484">
        <ele>187</ele>
        <time>2010-01-01T02:02:18Z</time>
      </trkpt>
      <trkpt lat="43.30651" lon="2.81505">
        <ele>186</ele>
        <time>2010-01-01T02:02:29Z</time>
      </trkpt>
      <trkpt lat="43.30654" lon="2.81517">
        <ele>185</ele>
        <time>2010-01-01T02:02:33Z</time>
      </trkpt>
      <trkpt lat="43.30654" lon="2.81526">
        <ele>184</ele>
        <time>2010-01-01T02:02:35Z</time>
      </trkpt>
      <trkpt lat="43.30656" lon="2.81533">
        <ele>184</ele>
        <time>2010-01-01T02:02:38Z</time>
      </trkpt>
      <trkpt lat="43.30662" lon="2.81538">
        <ele>184</ele>
        <time>2010-01-01T02:02:40Z</time>
      </trkpt>
      <trkpt lat="43.30677" lon="2.81541">
        <ele>183</ele>
        <time>2010-01-01T02:02:46Z</time>
      </trkpt>
      <trkpt lat="43.30693" lon="2.81567">
        <ele>180</ele>
        <time>2010-01-01T02:02:56Z</time>
      </trkpt>
      <trkpt lat="43.30701" lon="2.81577">
        <ele>179</ele>
        <time>2010-01-01T02:03:01Z</time>
      </trkpt>
      <trkpt lat="43.30708" lon="2.81593">
        <ele>178</ele>
        <time>2010-01-01T02:03:06Z</time>
      </trkpt>
      <trkpt lat="43.30712" lon="2.81594">
        <ele>178</ele>
        <time>2010-01-01T02:03:08Z</time>
      </trkpt>
      <trkpt lat="43.30717" lon="2.81592">
        <ele>178</ele>
        <time>2010-01-01T02:03:10Z</time>
      </trkpt>
      <trkpt lat="43.30727" lon="2.81569">
        <ele>179</ele>
        <time>2010-01-01T02:03:18Z</time>
      </trkpt>
      <trkpt lat="43.30732" lon="2.81568">
        <ele>179</ele>
        <time>2010-01-01T02:03:20Z</time>
      </trkpt>
      <trkpt lat="43.30737" lon="2.81575">
        <ele>178</ele>
        <time>2010-01-01T02:03:23Z</time>
      </trkpt>
      <trkpt lat="43.30741" lon="2.81574">
        <ele>177</ele>
        <time>2010-01-01T02:03:24Z</time>
      </trkpt>
      <trkpt lat="43.30752" lon="2.81569">
        <ele>176</ele>
        <time>2010-01-01T02:03:29Z</time>
      </trkpt>
      <trkpt lat="43.30755" lon="2.81562">
        <ele>175</ele>
        <time>2010-01-01T02:03:31Z</time>
      </trkpt>
      <trkpt lat="43.30763" lon="2.81553">
        <ele>174</ele>
        <time>2010-01-01T02:03:35Z</time>
      </trkpt>
      <trkpt lat="43.30766" lon="2.81554">
        <ele>173</ele>
        <time>2010-01-01T02:03:37Z</time>
      </trkpt>
      <trkpt lat="43.30771" lon="2.81564">
        <ele>172</ele>
        <time>2010-01-01T02:03:40Z</time>
      </trkpt>
      <trkpt lat="43.3078" lon="2.81568">
        <ele>171</ele>
        <time>2010-01-01T02:03:44Z</time>
      </trkpt>
      <trkpt lat="43.3078" lon="2.81567">
        <ele>171</ele>
        <time>2010-01-01T02:03:44Z</time>
      </trkpt>
      <trkpt lat="43.30785" lon="2.8157">
        <ele>170</ele>
        <time>2010-01-01T02:03:46Z</time>
      </trkpt>
      <trkpt lat="43.30805" lon="2.81565">
        <ele>166</ele>
        <time>2010-01-01T02:03:54Z</time>
      </trkpt>
      <trkpt lat="43.30812" lon="2.81558">
        <ele>164</ele>
        <time>2010-01-01T02:03:58Z</time>
      </trkpt>
      <trkpt lat="43.30822" lon="2.81553">
        <ele>162</ele>
        <time>2010-01-01T02:04:02Z</time>
      </trkpt>
      <trkpt lat="43.30848" lon="2.81543">
        <ele>153</ele>
        <time>2010-01-01T02:04:13Z</time>
      </trkpt>
      <trkpt lat="43.30854" lon="2.81535">
        <ele>151</ele>
        <time>2010-01-01T02:04:16Z</time>
      </trkpt>
      <trkpt lat="43.30852" lon="2.81508">
        <ele>149</ele>
        <time>2010-01-01T02:04:24Z</time>
      </trkpt>
      <trkpt lat="43.30855" lon="2.81483">
        <ele>146</ele>
        <time>2010-01-01T02:04:32Z</time>
      </trkpt>
      <trkpt lat="43.30859" lon="2.8148">
        <ele>145</ele>
        <time>2010-01-01T02:04:33Z</time>
      </trkpt>
      <trkpt lat="43.30864" lon="2.81481">
        <ele>143</ele>
        <time>2010-01-01T02:04:35Z</time>
      </trkpt>
      <trkpt lat="43.30873" lon="2.81492">
        <ele>141</ele>
        <time>2010-01-01T02:04:40Z</time>
      </trkpt>
      <trkpt lat="43.30888" lon="2.81518">
        <ele>139</ele>
        <time>2010-01-01T02:04:50Z</time>
      </trkpt>
      <trkpt lat="43.30896" lon="2.81528">
        <ele>138</ele>
        <time>2010-01-01T02:04:54Z</time>
      </trkpt>
      <trkpt lat="43.30904" lon="2.81545">
        <ele>139</ele>
        <time>2010-01-01T02:05:00Z</time>
      </trkpt>
      <trkpt lat="43.30912" lon="2.81555">
        <ele>138</ele>
        <time>2010-01-01T02:05:05Z</time>
      </trkpt>
      <trkpt lat="43.30919" lon="2.81557">
        <ele>136</ele>
        <time>2010-01-01T02:05:07Z</time>
      </trkpt>
      <trkpt lat="43.30926" lon="2.81552">
        <ele>134</ele>
        <time>2010-01-01T02:05:11Z</time>
      </trkpt>
      <trkpt lat="43.30932" lon="2.81535">
        <ele>131</ele>
        <time>2010-01-01T02:05:16Z</time>
      </trkpt>
      <trkpt lat="43.30936" lon="2.81477">
        <ele>124</ele>
        <time>2010-01-01T02:05:33Z</time>
      </trkpt>
      <trkpt lat="43.30939" lon="2.81471">
        <ele>123</ele>
        <time>2010-01-01T02:05:35Z</time>
      </trkpt>
      <trkpt lat="43.30945" lon="2.81477">
        <ele>122</ele>
        <time>2010-01-01T02:05:38Z</time>
      </trkpt>
      <trkpt lat="43.3096" lon="2.81504">
        <ele>119</ele>
        <time>2010-01-01T02:05:48Z</time>
      </trkpt>
      <trkpt lat="43.30972" lon="2.81531">
        <ele>117</ele>
        <time>2010-01-01T02:05:57Z</time>
      </trkpt>
      <trkpt lat="43.30984" lon="2.8157">
        <ele>113</ele>
        <time>2010-01-01T02:06:10Z</time>
      </trkpt>
      <trkpt lat="43.30984" lon="2.81591">
        <ele>113</ele>
        <time>2010-01-01T02:06:16Z</time>
      </trkpt>
      <trkpt lat="43.30986" lon="2.81598">
        <ele>112</ele>
        <time>2010-01-01T02:06:18Z</time>
      </trkpt>
      <trkpt lat="43.3099" lon="2.81601">
        <ele>110</ele>
        <time>2010-01-01T02:06:20Z</time>
      </trkpt>
      <trkpt lat="43.30994" lon="2.81598">
        <ele>108</ele>
        <time>2010-01-01T02:06:21Z</time>
      </trkpt>
      <trkpt lat="43.30996" lon="2.81591">
        <ele>107</ele>
        <time>2010-01-01T02:06:24Z</time>
      </trkpt>
      <trkpt lat="43.30996" lon="2.81556">
        <ele>107</ele>
        <time>2010-01-01T02:06:34Z</time>
      </trkpt>
      <trkpt lat="43.30999" lon="2.81546">
        <ele>105</ele>
        <time>2010-01-01T02:06:37Z</time>
      </trkpt>
      <trkpt lat="43.30998" lon="2.81487">
        <ele>106</ele>
        <time>2010-01-01T02:06:54Z</time>
      </trkpt>
      <trkpt lat="43.31" lon="2.81477">
        <ele>105</ele>
        <time>2010-01-01T02:06:57Z</time>
      </trkpt>
      <trkpt lat="43.31003" lon="2.81476">
        <ele>105</ele>
        <time>2010-01-01T02:06:58Z</time>
      </trkpt>
      <trkpt lat="43.31006" lon="2.81479">
        <ele>104</ele>
        <time>2010-01-01T02:07:00Z</time>
      </trkpt>
      <trkpt lat="43.31008" lon="2.81484">
        <ele>104</ele>
        <time>2010-01-01T02:07:02Z</time>
      </trkpt>
      <trkpt lat="43.31016" lon="2.81526">
        <ele>100</ele>
        <time>2010-01-01T02:07:14Z</time>
      </trkpt>
      <trkpt lat="43.31016" lon="2.81543">
        <ele>100</ele>
        <time>2010-01-01T02:07:19Z</time>
      </trkpt>
      <trkpt lat="43.31022" lon="2.81617">
        <ele>95</ele>
        <time>2010-01-01T02:07:41Z</time>
      </trkpt>
      <trkpt lat="43.31026" lon="2.8165">
        <ele>94</ele>
        <time>2010-01-01T02:07:51Z</time>
      </trkpt>
      <trkpt lat="43.31031" lon="2.81674">
        <ele>90</ele>
        <time>2010-01-01T02:07:58Z</time>
      </trkpt>
      <trkpt lat="43.31028" lon="2.81707">
        <ele>90</ele>
        <time>2010-01-01T02:08:08Z</time>
      </trkpt>
      <trkpt lat="43.31019" lon="2.81747">
        <ele>89</ele>
        <time>2010-01-01T02:08:20Z</time>
      </trkpt>
      <trkpt lat="43.31013" lon="2.81764">
        <ele>88</ele>
        <time>2010-01-01T02:08:25Z</time>
      </trkpt>
      <trkpt lat="43.31005" lon="2.8178">
        <ele>87</ele>
        <time>2010-01-01T02:08:31Z</time>
      </trkpt>
      <trkpt lat="43.30993" lon="2.81792">
        <ele>88</ele>
        <time>2010-01-01T02:08:37Z</time>
      </trkpt>
      <trkpt lat="43.30961" lon="2.81806">
        <ele>89</ele>
        <time>2010-01-01T02:08:50Z</time>
      </trkpt>
      <trkpt lat="43.30955" lon="2.81814">
        <ele>89</ele>
        <time>2010-01-01T02:08:54Z</time>
      </trkpt>
      <trkpt lat="43.3094" lon="2.81843">
        <ele>90</ele>
        <time>2010-01-01T02:09:04Z</time>
      </trkpt>
      <trkpt lat="43.30939" lon="2.81845">
        <ele>90</ele>
        <time>2010-01-01T02:09:05Z</time>
      </trkpt>
      <trkpt lat="43.30949" lon="2.81846">
        <ele>91</ele>
        <time>2010-01-01T02:09:09Z</time>
      </trkpt>
      <trkpt lat="43.30972" lon="2.81843">
        <ele>92</ele>
        <time>2010-01-01T02:09:18Z</time>
      </trkpt>
    </trkseg>
  </trk>
</gpx>